<?xml version="1.0" encoding="UTF-8" standalone="no" ?>
<gpx xmlns="http://www.topografix.com/GPX/1/1" xmlns:xsi="http://www.w3.org/2001/XMLSchema-instance" xsi:schemaLocation="http://www.topografix.com/GPX/1/1 http://www.topografix.com/GPX/1/1/gpx.xsd" version="1.1" creator="VisuGPX - https://www.visugpx.com">
  <metadata>
    <name>Grand Som</name>
    <desc><![CDATA[13 janv. 2022 à 09:08:13

]]></desc>
  </metadata>
  <trk>
    <name><![CDATA[13 janv. 2022 à 09:08:13]]></name>
    <cmt><![CDATA[13 janv. 2022 à 09:08:13]]></cmt>
    <trkseg>
      <trkpt lat="45.35556" lon="5.78806">
        <ele>973</ele>
        <time>2022-01-13T08:08:14Z</time>
      </trkpt>
      <trkpt lat="45.35549" lon="5.78804">
        <ele>973</ele>
        <time>2022-01-13T08:08:51Z</time>
      </trkpt>
      <trkpt lat="45.35552" lon="5.78809">
        <ele>972</ele>
        <time>2022-01-13T08:10:58Z</time>
      </trkpt>
      <trkpt lat="45.35548" lon="5.78806">
        <ele>971</ele>
        <time>2022-01-13T08:11:41Z</time>
      </trkpt>
      <trkpt lat="45.35548" lon="5.78805">
        <ele>971</ele>
        <time>2022-01-13T08:13:25Z</time>
      </trkpt>
      <trkpt lat="45.3554" lon="5.78801">
        <ele>968</ele>
        <time>2022-01-13T08:18:36Z</time>
      </trkpt>
      <trkpt lat="45.35548" lon="5.78794">
        <ele>965</ele>
        <time>2022-01-13T08:23:13Z</time>
      </trkpt>
      <trkpt lat="45.35556" lon="5.78785">
        <ele>966</ele>
        <time>2022-01-13T08:23:50Z</time>
      </trkpt>
      <trkpt lat="45.35565" lon="5.78787">
        <ele>964</ele>
        <time>2022-01-13T08:29:05Z</time>
      </trkpt>
      <trkpt lat="45.35585" lon="5.78797">
        <ele>965</ele>
        <time>2022-01-13T08:29:34Z</time>
      </trkpt>
      <trkpt lat="45.35613" lon="5.78801">
        <ele>967</ele>
        <time>2022-01-13T08:30:07Z</time>
      </trkpt>
      <trkpt lat="45.35631" lon="5.78806">
        <ele>968</ele>
        <time>2022-01-13T08:30:31Z</time>
      </trkpt>
      <trkpt lat="45.3564" lon="5.78804">
        <ele>968</ele>
        <time>2022-01-13T08:30:38Z</time>
      </trkpt>
      <trkpt lat="45.35648" lon="5.78811">
        <ele>969</ele>
        <time>2022-01-13T08:30:47Z</time>
      </trkpt>
      <trkpt lat="45.35658" lon="5.7881">
        <ele>969</ele>
        <time>2022-01-13T08:30:55Z</time>
      </trkpt>
      <trkpt lat="45.35665" lon="5.78817">
        <ele>970</ele>
        <time>2022-01-13T08:31:02Z</time>
      </trkpt>
      <trkpt lat="45.35675" lon="5.7882">
        <ele>971</ele>
        <time>2022-01-13T08:31:14Z</time>
      </trkpt>
      <trkpt lat="45.35686" lon="5.78828">
        <ele>972</ele>
        <time>2022-01-13T08:31:30Z</time>
      </trkpt>
      <trkpt lat="45.35696" lon="5.7883">
        <ele>973</ele>
        <time>2022-01-13T08:31:40Z</time>
      </trkpt>
      <trkpt lat="45.35705" lon="5.78836">
        <ele>974</ele>
        <time>2022-01-13T08:31:53Z</time>
      </trkpt>
      <trkpt lat="45.35714" lon="5.78844">
        <ele>975</ele>
        <time>2022-01-13T08:32:05Z</time>
      </trkpt>
      <trkpt lat="45.35724" lon="5.78859">
        <ele>976</ele>
        <time>2022-01-13T08:32:23Z</time>
      </trkpt>
      <trkpt lat="45.35734" lon="5.78873">
        <ele>978</ele>
        <time>2022-01-13T08:32:37Z</time>
      </trkpt>
      <trkpt lat="45.35743" lon="5.78875">
        <ele>979</ele>
        <time>2022-01-13T08:32:45Z</time>
      </trkpt>
      <trkpt lat="45.35753" lon="5.78873">
        <ele>979</ele>
        <time>2022-01-13T08:32:53Z</time>
      </trkpt>
      <trkpt lat="45.35762" lon="5.78873">
        <ele>980</ele>
        <time>2022-01-13T08:33:00Z</time>
      </trkpt>
      <trkpt lat="45.35769" lon="5.78881">
        <ele>982</ele>
        <time>2022-01-13T08:33:15Z</time>
      </trkpt>
      <trkpt lat="45.35795" lon="5.7889">
        <ele>985</ele>
        <time>2022-01-13T08:33:48Z</time>
      </trkpt>
      <trkpt lat="45.35826" lon="5.78902">
        <ele>989</ele>
        <time>2022-01-13T08:34:20Z</time>
      </trkpt>
      <trkpt lat="45.35836" lon="5.78906">
        <ele>990</ele>
        <time>2022-01-13T08:34:36Z</time>
      </trkpt>
      <trkpt lat="45.35845" lon="5.78911">
        <ele>991</ele>
        <time>2022-01-13T08:34:46Z</time>
      </trkpt>
      <trkpt lat="45.35851" lon="5.78921">
        <ele>992</ele>
        <time>2022-01-13T08:34:59Z</time>
      </trkpt>
      <trkpt lat="45.35861" lon="5.78926">
        <ele>993</ele>
        <time>2022-01-13T08:35:08Z</time>
      </trkpt>
      <trkpt lat="45.3587" lon="5.78927">
        <ele>994</ele>
        <time>2022-01-13T08:35:18Z</time>
      </trkpt>
      <trkpt lat="45.35878" lon="5.78935">
        <ele>995</ele>
        <time>2022-01-13T08:35:28Z</time>
      </trkpt>
      <trkpt lat="45.35887" lon="5.78931">
        <ele>997</ele>
        <time>2022-01-13T08:35:43Z</time>
      </trkpt>
      <trkpt lat="45.35919" lon="5.7894">
        <ele>1001</ele>
        <time>2022-01-13T08:36:19Z</time>
      </trkpt>
      <trkpt lat="45.35941" lon="5.78953">
        <ele>1005</ele>
        <time>2022-01-13T08:36:51Z</time>
      </trkpt>
      <trkpt lat="45.3595" lon="5.78965">
        <ele>1008</ele>
        <time>2022-01-13T08:37:07Z</time>
      </trkpt>
      <trkpt lat="45.35985" lon="5.78986">
        <ele>1012</ele>
        <time>2022-01-13T08:37:44Z</time>
      </trkpt>
      <trkpt lat="45.35993" lon="5.78996">
        <ele>1014</ele>
        <time>2022-01-13T08:37:57Z</time>
      </trkpt>
      <trkpt lat="45.36016" lon="5.79012">
        <ele>1018</ele>
        <time>2022-01-13T08:38:30Z</time>
      </trkpt>
      <trkpt lat="45.36034" lon="5.79014">
        <ele>1021</ele>
        <time>2022-01-13T08:38:49Z</time>
      </trkpt>
      <trkpt lat="45.36047" lon="5.79019">
        <ele>1023</ele>
        <time>2022-01-13T08:39:08Z</time>
      </trkpt>
      <trkpt lat="45.36068" lon="5.7904">
        <ele>1028</ele>
        <time>2022-01-13T08:39:42Z</time>
      </trkpt>
      <trkpt lat="45.36077" lon="5.79051">
        <ele>1029</ele>
        <time>2022-01-13T08:39:57Z</time>
      </trkpt>
      <trkpt lat="45.36087" lon="5.79056">
        <ele>1031</ele>
        <time>2022-01-13T08:40:10Z</time>
      </trkpt>
      <trkpt lat="45.36116" lon="5.79066">
        <ele>1035</ele>
        <time>2022-01-13T08:40:44Z</time>
      </trkpt>
      <trkpt lat="45.3613" lon="5.79072">
        <ele>1037</ele>
        <time>2022-01-13T08:41:01Z</time>
      </trkpt>
      <trkpt lat="45.36142" lon="5.79075">
        <ele>1038</ele>
        <time>2022-01-13T08:41:16Z</time>
      </trkpt>
      <trkpt lat="45.36171" lon="5.79087">
        <ele>1042</ele>
        <time>2022-01-13T08:41:55Z</time>
      </trkpt>
      <trkpt lat="45.36183" lon="5.79093">
        <ele>1043</ele>
        <time>2022-01-13T08:42:10Z</time>
      </trkpt>
      <trkpt lat="45.36203" lon="5.791">
        <ele>1046</ele>
        <time>2022-01-13T08:42:37Z</time>
      </trkpt>
      <trkpt lat="45.36218" lon="5.79099">
        <ele>1048</ele>
        <time>2022-01-13T08:42:52Z</time>
      </trkpt>
      <trkpt lat="45.36228" lon="5.79102">
        <ele>1049</ele>
        <time>2022-01-13T08:43:01Z</time>
      </trkpt>
      <trkpt lat="45.36233" lon="5.79115">
        <ele>1051</ele>
        <time>2022-01-13T08:43:15Z</time>
      </trkpt>
      <trkpt lat="45.36243" lon="5.79124">
        <ele>1052</ele>
        <time>2022-01-13T08:43:29Z</time>
      </trkpt>
      <trkpt lat="45.36247" lon="5.7912">
        <ele>1054</ele>
        <time>2022-01-13T08:44:26Z</time>
      </trkpt>
      <trkpt lat="45.36256" lon="5.79127">
        <ele>1055</ele>
        <time>2022-01-13T08:44:49Z</time>
      </trkpt>
      <trkpt lat="45.36264" lon="5.79138">
        <ele>1057</ele>
        <time>2022-01-13T08:45:07Z</time>
      </trkpt>
      <trkpt lat="45.36285" lon="5.79155">
        <ele>1061</ele>
        <time>2022-01-13T08:45:39Z</time>
      </trkpt>
      <trkpt lat="45.36309" lon="5.79159">
        <ele>1064</ele>
        <time>2022-01-13T08:46:15Z</time>
      </trkpt>
      <trkpt lat="45.36316" lon="5.79152">
        <ele>1065</ele>
        <time>2022-01-13T08:47:03Z</time>
      </trkpt>
      <trkpt lat="45.36329" lon="5.79157">
        <ele>1067</ele>
        <time>2022-01-13T08:47:23Z</time>
      </trkpt>
      <trkpt lat="45.36342" lon="5.79172">
        <ele>1069</ele>
        <time>2022-01-13T08:47:45Z</time>
      </trkpt>
      <trkpt lat="45.36351" lon="5.79178">
        <ele>1070</ele>
        <time>2022-01-13T08:47:59Z</time>
      </trkpt>
      <trkpt lat="45.3636" lon="5.79177">
        <ele>1071</ele>
        <time>2022-01-13T08:48:09Z</time>
      </trkpt>
      <trkpt lat="45.36368" lon="5.79186">
        <ele>1074</ele>
        <time>2022-01-13T08:48:23Z</time>
      </trkpt>
      <trkpt lat="45.36371" lon="5.79199">
        <ele>1075</ele>
        <time>2022-01-13T08:48:33Z</time>
      </trkpt>
      <trkpt lat="45.36406" lon="5.79211">
        <ele>1079</ele>
        <time>2022-01-13T08:49:17Z</time>
      </trkpt>
      <trkpt lat="45.36417" lon="5.79215">
        <ele>1081</ele>
        <time>2022-01-13T08:49:35Z</time>
      </trkpt>
      <trkpt lat="45.36426" lon="5.79223">
        <ele>1083</ele>
        <time>2022-01-13T08:49:53Z</time>
      </trkpt>
      <trkpt lat="45.36438" lon="5.79224">
        <ele>1086</ele>
        <time>2022-01-13T08:50:12Z</time>
      </trkpt>
      <trkpt lat="45.36449" lon="5.79234">
        <ele>1088</ele>
        <time>2022-01-13T08:50:30Z</time>
      </trkpt>
      <trkpt lat="45.3646" lon="5.79244">
        <ele>1091</ele>
        <time>2022-01-13T08:50:46Z</time>
      </trkpt>
      <trkpt lat="45.36472" lon="5.79264">
        <ele>1092</ele>
        <time>2022-01-13T08:51:08Z</time>
      </trkpt>
      <trkpt lat="45.36476" lon="5.79267">
        <ele>1093</ele>
        <time>2022-01-13T08:51:14Z</time>
      </trkpt>
      <trkpt lat="45.36488" lon="5.79272">
        <ele>1094</ele>
        <time>2022-01-13T08:51:32Z</time>
      </trkpt>
      <trkpt lat="45.36494" lon="5.79276">
        <ele>1096</ele>
        <time>2022-01-13T08:51:44Z</time>
      </trkpt>
      <trkpt lat="45.36496" lon="5.79284">
        <ele>1096</ele>
        <time>2022-01-13T08:51:48Z</time>
      </trkpt>
      <trkpt lat="45.36508" lon="5.79303">
        <ele>1099</ele>
        <time>2022-01-13T08:52:15Z</time>
      </trkpt>
      <trkpt lat="45.36514" lon="5.79311">
        <ele>1100</ele>
        <time>2022-01-13T08:52:27Z</time>
      </trkpt>
      <trkpt lat="45.3652" lon="5.79314">
        <ele>1101</ele>
        <time>2022-01-13T08:52:39Z</time>
      </trkpt>
      <trkpt lat="45.36526" lon="5.79323">
        <ele>1103</ele>
        <time>2022-01-13T08:52:51Z</time>
      </trkpt>
      <trkpt lat="45.36547" lon="5.79336">
        <ele>1106</ele>
        <time>2022-01-13T08:53:23Z</time>
      </trkpt>
      <trkpt lat="45.36551" lon="5.79337">
        <ele>1106</ele>
        <time>2022-01-13T08:53:29Z</time>
      </trkpt>
      <trkpt lat="45.36556" lon="5.79341">
        <ele>1106</ele>
        <time>2022-01-13T08:54:59Z</time>
      </trkpt>
      <trkpt lat="45.36565" lon="5.79338">
        <ele>1107</ele>
        <time>2022-01-13T08:56:08Z</time>
      </trkpt>
      <trkpt lat="45.36571" lon="5.79338">
        <ele>1107</ele>
        <time>2022-01-13T08:56:12Z</time>
      </trkpt>
      <trkpt lat="45.36583" lon="5.79356">
        <ele>1108</ele>
        <time>2022-01-13T08:56:32Z</time>
      </trkpt>
      <trkpt lat="45.36589" lon="5.79359">
        <ele>1108</ele>
        <time>2022-01-13T08:56:37Z</time>
      </trkpt>
      <trkpt lat="45.3662" lon="5.79347">
        <ele>1111</ele>
        <time>2022-01-13T08:57:09Z</time>
      </trkpt>
      <trkpt lat="45.36625" lon="5.79346">
        <ele>1111</ele>
        <time>2022-01-13T08:57:14Z</time>
      </trkpt>
      <trkpt lat="45.36636" lon="5.79347">
        <ele>1112</ele>
        <time>2022-01-13T08:57:27Z</time>
      </trkpt>
      <trkpt lat="45.36646" lon="5.7935">
        <ele>1113</ele>
        <time>2022-01-13T08:57:37Z</time>
      </trkpt>
      <trkpt lat="45.36657" lon="5.79349">
        <ele>1114</ele>
        <time>2022-01-13T08:57:50Z</time>
      </trkpt>
      <trkpt lat="45.36666" lon="5.79342">
        <ele>1115</ele>
        <time>2022-01-13T08:58:04Z</time>
      </trkpt>
      <trkpt lat="45.36671" lon="5.79342">
        <ele>1116</ele>
        <time>2022-01-13T08:58:09Z</time>
      </trkpt>
      <trkpt lat="45.36689" lon="5.79334">
        <ele>1118</ele>
        <time>2022-01-13T08:58:32Z</time>
      </trkpt>
      <trkpt lat="45.36719" lon="5.79336">
        <ele>1124</ele>
        <time>2022-01-13T08:59:19Z</time>
      </trkpt>
      <trkpt lat="45.3674" lon="5.79335">
        <ele>1128</ele>
        <time>2022-01-13T08:59:50Z</time>
      </trkpt>
      <trkpt lat="45.36761" lon="5.79339">
        <ele>1133</ele>
        <time>2022-01-13T09:00:26Z</time>
      </trkpt>
      <trkpt lat="45.36786" lon="5.7935">
        <ele>1137</ele>
        <time>2022-01-13T09:01:03Z</time>
      </trkpt>
      <trkpt lat="45.36806" lon="5.79359">
        <ele>1141</ele>
        <time>2022-01-13T09:01:33Z</time>
      </trkpt>
      <trkpt lat="45.3683" lon="5.79378">
        <ele>1146</ele>
        <time>2022-01-13T09:02:15Z</time>
      </trkpt>
      <trkpt lat="45.36849" lon="5.79385">
        <ele>1149</ele>
        <time>2022-01-13T09:02:41Z</time>
      </trkpt>
      <trkpt lat="45.36876" lon="5.79385">
        <ele>1152</ele>
        <time>2022-01-13T09:03:15Z</time>
      </trkpt>
      <trkpt lat="45.3689" lon="5.79385">
        <ele>1155</ele>
        <time>2022-01-13T09:03:33Z</time>
      </trkpt>
      <trkpt lat="45.369" lon="5.79381">
        <ele>1156</ele>
        <time>2022-01-13T09:03:46Z</time>
      </trkpt>
      <trkpt lat="45.36915" lon="5.79386">
        <ele>1158</ele>
        <time>2022-01-13T09:04:06Z</time>
      </trkpt>
      <trkpt lat="45.36934" lon="5.7938">
        <ele>1161</ele>
        <time>2022-01-13T09:04:29Z</time>
      </trkpt>
      <trkpt lat="45.36945" lon="5.79381">
        <ele>1163</ele>
        <time>2022-01-13T09:04:47Z</time>
      </trkpt>
      <trkpt lat="45.36956" lon="5.79383">
        <ele>1165</ele>
        <time>2022-01-13T09:05:05Z</time>
      </trkpt>
      <trkpt lat="45.36961" lon="5.79381">
        <ele>1165</ele>
        <time>2022-01-13T09:05:11Z</time>
      </trkpt>
      <trkpt lat="45.36969" lon="5.79375">
        <ele>1166</ele>
        <time>2022-01-13T09:05:23Z</time>
      </trkpt>
      <trkpt lat="45.36988" lon="5.79369">
        <ele>1169</ele>
        <time>2022-01-13T09:05:49Z</time>
      </trkpt>
      <trkpt lat="45.36998" lon="5.79351">
        <ele>1172</ele>
        <time>2022-01-13T09:06:13Z</time>
      </trkpt>
      <trkpt lat="45.37009" lon="5.79345">
        <ele>1175</ele>
        <time>2022-01-13T09:06:30Z</time>
      </trkpt>
      <trkpt lat="45.37017" lon="5.79343">
        <ele>1176</ele>
        <time>2022-01-13T09:06:42Z</time>
      </trkpt>
      <trkpt lat="45.37034" lon="5.79331">
        <ele>1181</ele>
        <time>2022-01-13T09:07:18Z</time>
      </trkpt>
      <trkpt lat="45.37056" lon="5.7932">
        <ele>1185</ele>
        <time>2022-01-13T09:07:52Z</time>
      </trkpt>
      <trkpt lat="45.3707" lon="5.793">
        <ele>1190</ele>
        <time>2022-01-13T09:08:28Z</time>
      </trkpt>
      <trkpt lat="45.3708" lon="5.79295">
        <ele>1191</ele>
        <time>2022-01-13T09:08:39Z</time>
      </trkpt>
      <trkpt lat="45.37085" lon="5.79293">
        <ele>1192</ele>
        <time>2022-01-13T09:08:44Z</time>
      </trkpt>
      <trkpt lat="45.37101" lon="5.79295">
        <ele>1195</ele>
        <time>2022-01-13T09:09:16Z</time>
      </trkpt>
      <trkpt lat="45.37126" lon="5.79288">
        <ele>1198</ele>
        <time>2022-01-13T09:09:46Z</time>
      </trkpt>
      <trkpt lat="45.37136" lon="5.79291">
        <ele>1199</ele>
        <time>2022-01-13T09:09:59Z</time>
      </trkpt>
      <trkpt lat="45.37149" lon="5.79293">
        <ele>1202</ele>
        <time>2022-01-13T09:10:15Z</time>
      </trkpt>
      <trkpt lat="45.37176" lon="5.79305">
        <ele>1206</ele>
        <time>2022-01-13T09:10:54Z</time>
      </trkpt>
      <trkpt lat="45.37194" lon="5.79309">
        <ele>1211</ele>
        <time>2022-01-13T09:11:25Z</time>
      </trkpt>
      <trkpt lat="45.37216" lon="5.79319">
        <ele>1215</ele>
        <time>2022-01-13T09:12:01Z</time>
      </trkpt>
      <trkpt lat="45.37234" lon="5.79337">
        <ele>1218</ele>
        <time>2022-01-13T09:12:28Z</time>
      </trkpt>
      <trkpt lat="45.37247" lon="5.79351">
        <ele>1220</ele>
        <time>2022-01-13T09:12:49Z</time>
      </trkpt>
      <trkpt lat="45.37257" lon="5.79363">
        <ele>1222</ele>
        <time>2022-01-13T09:13:03Z</time>
      </trkpt>
      <trkpt lat="45.37265" lon="5.79386">
        <ele>1225</ele>
        <time>2022-01-13T09:13:28Z</time>
      </trkpt>
      <trkpt lat="45.37274" lon="5.79389">
        <ele>1226</ele>
        <time>2022-01-13T09:13:38Z</time>
      </trkpt>
      <trkpt lat="45.37282" lon="5.79397">
        <ele>1227</ele>
        <time>2022-01-13T09:13:51Z</time>
      </trkpt>
      <trkpt lat="45.37289" lon="5.79413">
        <ele>1229</ele>
        <time>2022-01-13T09:14:09Z</time>
      </trkpt>
      <trkpt lat="45.37296" lon="5.79421">
        <ele>1231</ele>
        <time>2022-01-13T09:14:21Z</time>
      </trkpt>
      <trkpt lat="45.37312" lon="5.79453">
        <ele>1236</ele>
        <time>2022-01-13T09:14:59Z</time>
      </trkpt>
      <trkpt lat="45.3732" lon="5.79468">
        <ele>1238</ele>
        <time>2022-01-13T09:15:19Z</time>
      </trkpt>
      <trkpt lat="45.37326" lon="5.79474">
        <ele>1240</ele>
        <time>2022-01-13T09:15:31Z</time>
      </trkpt>
      <trkpt lat="45.37334" lon="5.7948">
        <ele>1241</ele>
        <time>2022-01-13T09:15:43Z</time>
      </trkpt>
      <trkpt lat="45.37341" lon="5.79488">
        <ele>1242</ele>
        <time>2022-01-13T09:15:55Z</time>
      </trkpt>
      <trkpt lat="45.37353" lon="5.79496">
        <ele>1246</ele>
        <time>2022-01-13T09:16:19Z</time>
      </trkpt>
      <trkpt lat="45.37363" lon="5.79497">
        <ele>1246</ele>
        <time>2022-01-13T09:16:29Z</time>
      </trkpt>
      <trkpt lat="45.37373" lon="5.795">
        <ele>1248</ele>
        <time>2022-01-13T09:16:43Z</time>
      </trkpt>
      <trkpt lat="45.37383" lon="5.79497">
        <ele>1249</ele>
        <time>2022-01-13T09:16:55Z</time>
      </trkpt>
      <trkpt lat="45.37392" lon="5.79499">
        <ele>1249</ele>
        <time>2022-01-13T09:17:04Z</time>
      </trkpt>
      <trkpt lat="45.37402" lon="5.79497">
        <ele>1250</ele>
        <time>2022-01-13T09:17:18Z</time>
      </trkpt>
      <trkpt lat="45.37439" lon="5.79523">
        <ele>1254</ele>
        <time>2022-01-13T09:18:03Z</time>
      </trkpt>
      <trkpt lat="45.37465" lon="5.79536">
        <ele>1256</ele>
        <time>2022-01-13T09:18:35Z</time>
      </trkpt>
      <trkpt lat="45.37473" lon="5.79543">
        <ele>1257</ele>
        <time>2022-01-13T09:18:45Z</time>
      </trkpt>
      <trkpt lat="45.37484" lon="5.79543">
        <ele>1258</ele>
        <time>2022-01-13T09:19:01Z</time>
      </trkpt>
      <trkpt lat="45.37519" lon="5.7956">
        <ele>1262</ele>
        <time>2022-01-13T09:19:41Z</time>
      </trkpt>
      <trkpt lat="45.37523" lon="5.79566">
        <ele>1263</ele>
        <time>2022-01-13T09:19:54Z</time>
      </trkpt>
      <trkpt lat="45.37528" lon="5.79566">
        <ele>1262</ele>
        <time>2022-01-13T09:20:26Z</time>
      </trkpt>
      <trkpt lat="45.37526" lon="5.79577">
        <ele>1262</ele>
        <time>2022-01-13T09:21:25Z</time>
      </trkpt>
      <trkpt lat="45.37526" lon="5.79605">
        <ele>1269</ele>
        <time>2022-01-13T09:22:01Z</time>
      </trkpt>
      <trkpt lat="45.37529" lon="5.79613">
        <ele>1271</ele>
        <time>2022-01-13T09:22:13Z</time>
      </trkpt>
      <trkpt lat="45.37531" lon="5.7962">
        <ele>1272</ele>
        <time>2022-01-13T09:22:20Z</time>
      </trkpt>
      <trkpt lat="45.37535" lon="5.79629">
        <ele>1273</ele>
        <time>2022-01-13T09:22:32Z</time>
      </trkpt>
      <trkpt lat="45.37541" lon="5.79644">
        <ele>1275</ele>
        <time>2022-01-13T09:22:50Z</time>
      </trkpt>
      <trkpt lat="45.37548" lon="5.79653">
        <ele>1277</ele>
        <time>2022-01-13T09:23:00Z</time>
      </trkpt>
      <trkpt lat="45.37561" lon="5.79656">
        <ele>1278</ele>
        <time>2022-01-13T09:23:14Z</time>
      </trkpt>
      <trkpt lat="45.37569" lon="5.79664">
        <ele>1278</ele>
        <time>2022-01-13T09:23:22Z</time>
      </trkpt>
      <trkpt lat="45.37608" lon="5.79688">
        <ele>1282</ele>
        <time>2022-01-13T09:24:10Z</time>
      </trkpt>
      <trkpt lat="45.37618" lon="5.7969">
        <ele>1283</ele>
        <time>2022-01-13T09:24:24Z</time>
      </trkpt>
      <trkpt lat="45.37648" lon="5.79706">
        <ele>1286</ele>
        <time>2022-01-13T09:24:58Z</time>
      </trkpt>
      <trkpt lat="45.37652" lon="5.79708">
        <ele>1287</ele>
        <time>2022-01-13T09:25:02Z</time>
      </trkpt>
      <trkpt lat="45.37661" lon="5.79713">
        <ele>1287</ele>
        <time>2022-01-13T09:25:12Z</time>
      </trkpt>
      <trkpt lat="45.37675" lon="5.79725">
        <ele>1288</ele>
        <time>2022-01-13T09:25:31Z</time>
      </trkpt>
      <trkpt lat="45.37679" lon="5.79728">
        <ele>1288</ele>
        <time>2022-01-13T09:25:36Z</time>
      </trkpt>
      <trkpt lat="45.37684" lon="5.79735">
        <ele>1289</ele>
        <time>2022-01-13T09:25:46Z</time>
      </trkpt>
      <trkpt lat="45.37687" lon="5.79744">
        <ele>1290</ele>
        <time>2022-01-13T09:25:58Z</time>
      </trkpt>
      <trkpt lat="45.37692" lon="5.79755">
        <ele>1290</ele>
        <time>2022-01-13T09:26:09Z</time>
      </trkpt>
      <trkpt lat="45.37696" lon="5.7976">
        <ele>1291</ele>
        <time>2022-01-13T09:26:18Z</time>
      </trkpt>
      <trkpt lat="45.377" lon="5.79766">
        <ele>1292</ele>
        <time>2022-01-13T09:26:29Z</time>
      </trkpt>
      <trkpt lat="45.37706" lon="5.79768">
        <ele>1293</ele>
        <time>2022-01-13T09:26:37Z</time>
      </trkpt>
      <trkpt lat="45.37711" lon="5.79777">
        <ele>1295</ele>
        <time>2022-01-13T09:26:48Z</time>
      </trkpt>
      <trkpt lat="45.37715" lon="5.79781">
        <ele>1295</ele>
        <time>2022-01-13T09:26:52Z</time>
      </trkpt>
      <trkpt lat="45.37721" lon="5.79793">
        <ele>1297</ele>
        <time>2022-01-13T09:27:09Z</time>
      </trkpt>
      <trkpt lat="45.37728" lon="5.79798">
        <ele>1299</ele>
        <time>2022-01-13T09:27:21Z</time>
      </trkpt>
      <trkpt lat="45.37742" lon="5.79814">
        <ele>1302</ele>
        <time>2022-01-13T09:27:51Z</time>
      </trkpt>
      <trkpt lat="45.37746" lon="5.79821">
        <ele>1304</ele>
        <time>2022-01-13T09:28:03Z</time>
      </trkpt>
      <trkpt lat="45.37744" lon="5.79828">
        <ele>1305</ele>
        <time>2022-01-13T09:28:08Z</time>
      </trkpt>
      <trkpt lat="45.37751" lon="5.79842">
        <ele>1307</ele>
        <time>2022-01-13T09:28:26Z</time>
      </trkpt>
      <trkpt lat="45.37756" lon="5.79852">
        <ele>1308</ele>
        <time>2022-01-13T09:28:35Z</time>
      </trkpt>
      <trkpt lat="45.37759" lon="5.79858">
        <ele>1308</ele>
        <time>2022-01-13T09:28:40Z</time>
      </trkpt>
      <trkpt lat="45.37771" lon="5.79865">
        <ele>1308</ele>
        <time>2022-01-13T09:29:01Z</time>
      </trkpt>
      <trkpt lat="45.37783" lon="5.79867">
        <ele>1309</ele>
        <time>2022-01-13T09:29:15Z</time>
      </trkpt>
      <trkpt lat="45.37795" lon="5.79872">
        <ele>1311</ele>
        <time>2022-01-13T09:29:30Z</time>
      </trkpt>
      <trkpt lat="45.37814" lon="5.79888">
        <ele>1315</ele>
        <time>2022-01-13T09:30:06Z</time>
      </trkpt>
      <trkpt lat="45.37824" lon="5.79892">
        <ele>1316</ele>
        <time>2022-01-13T09:30:16Z</time>
      </trkpt>
      <trkpt lat="45.37833" lon="5.79893">
        <ele>1317</ele>
        <time>2022-01-13T09:30:30Z</time>
      </trkpt>
      <trkpt lat="45.37843" lon="5.79898">
        <ele>1319</ele>
        <time>2022-01-13T09:30:48Z</time>
      </trkpt>
      <trkpt lat="45.37852" lon="5.79905">
        <ele>1322</ele>
        <time>2022-01-13T09:31:06Z</time>
      </trkpt>
      <trkpt lat="45.37863" lon="5.7991">
        <ele>1325</ele>
        <time>2022-01-13T09:31:30Z</time>
      </trkpt>
      <trkpt lat="45.37882" lon="5.79917">
        <ele>1330</ele>
        <time>2022-01-13T09:32:06Z</time>
      </trkpt>
      <trkpt lat="45.37891" lon="5.79921">
        <ele>1332</ele>
        <time>2022-01-13T09:32:24Z</time>
      </trkpt>
      <trkpt lat="45.37902" lon="5.79922">
        <ele>1334</ele>
        <time>2022-01-13T09:32:42Z</time>
      </trkpt>
      <trkpt lat="45.37913" lon="5.79921">
        <ele>1338</ele>
        <time>2022-01-13T09:33:06Z</time>
      </trkpt>
      <trkpt lat="45.37918" lon="5.7992">
        <ele>1338</ele>
        <time>2022-01-13T09:33:12Z</time>
      </trkpt>
      <trkpt lat="45.37924" lon="5.7992">
        <ele>1339</ele>
        <time>2022-01-13T09:33:17Z</time>
      </trkpt>
      <trkpt lat="45.37929" lon="5.79919">
        <ele>1338</ele>
        <time>2022-01-13T09:33:22Z</time>
      </trkpt>
      <trkpt lat="45.37935" lon="5.79913">
        <ele>1339</ele>
        <time>2022-01-13T09:33:32Z</time>
      </trkpt>
      <trkpt lat="45.37942" lon="5.79917">
        <ele>1341</ele>
        <time>2022-01-13T09:33:44Z</time>
      </trkpt>
      <trkpt lat="45.37948" lon="5.79912">
        <ele>1342</ele>
        <time>2022-01-13T09:33:56Z</time>
      </trkpt>
      <trkpt lat="45.37952" lon="5.79909">
        <ele>1342</ele>
        <time>2022-01-13T09:34:01Z</time>
      </trkpt>
      <trkpt lat="45.37958" lon="5.79903">
        <ele>1343</ele>
        <time>2022-01-13T09:34:08Z</time>
      </trkpt>
      <trkpt lat="45.3797" lon="5.79894">
        <ele>1345</ele>
        <time>2022-01-13T09:34:26Z</time>
      </trkpt>
      <trkpt lat="45.37976" lon="5.79884">
        <ele>1349</ele>
        <time>2022-01-13T09:34:50Z</time>
      </trkpt>
      <trkpt lat="45.37983" lon="5.79873">
        <ele>1352</ele>
        <time>2022-01-13T09:35:13Z</time>
      </trkpt>
      <trkpt lat="45.37983" lon="5.79864">
        <ele>1354</ele>
        <time>2022-01-13T09:35:31Z</time>
      </trkpt>
      <trkpt lat="45.37989" lon="5.79862">
        <ele>1357</ele>
        <time>2022-01-13T09:35:49Z</time>
      </trkpt>
      <trkpt lat="45.37998" lon="5.79849">
        <ele>1360</ele>
        <time>2022-01-13T09:36:09Z</time>
      </trkpt>
      <trkpt lat="45.37998" lon="5.79824">
        <ele>1365</ele>
        <time>2022-01-13T09:36:44Z</time>
      </trkpt>
      <trkpt lat="45.37997" lon="5.79813">
        <ele>1367</ele>
        <time>2022-01-13T09:37:02Z</time>
      </trkpt>
      <trkpt lat="45.37989" lon="5.79802">
        <ele>1370</ele>
        <time>2022-01-13T09:37:20Z</time>
      </trkpt>
      <trkpt lat="45.37985" lon="5.79794">
        <ele>1372</ele>
        <time>2022-01-13T09:37:38Z</time>
      </trkpt>
      <trkpt lat="45.37987" lon="5.79787">
        <ele>1374</ele>
        <time>2022-01-13T09:37:50Z</time>
      </trkpt>
      <trkpt lat="45.3799" lon="5.79782">
        <ele>1375</ele>
        <time>2022-01-13T09:38:02Z</time>
      </trkpt>
      <trkpt lat="45.37989" lon="5.79773">
        <ele>1377</ele>
        <time>2022-01-13T09:38:14Z</time>
      </trkpt>
      <trkpt lat="45.37992" lon="5.79758">
        <ele>1381</ele>
        <time>2022-01-13T09:38:38Z</time>
      </trkpt>
      <trkpt lat="45.38" lon="5.7975">
        <ele>1382</ele>
        <time>2022-01-13T09:38:56Z</time>
      </trkpt>
      <trkpt lat="45.38009" lon="5.79742">
        <ele>1384</ele>
        <time>2022-01-13T09:39:14Z</time>
      </trkpt>
      <trkpt lat="45.38017" lon="5.79735">
        <ele>1387</ele>
        <time>2022-01-13T09:39:38Z</time>
      </trkpt>
      <trkpt lat="45.38026" lon="5.79735">
        <ele>1390</ele>
        <time>2022-01-13T09:39:56Z</time>
      </trkpt>
      <trkpt lat="45.38036" lon="5.79735">
        <ele>1391</ele>
        <time>2022-01-13T09:40:10Z</time>
      </trkpt>
      <trkpt lat="45.38068" lon="5.79716">
        <ele>1396</ele>
        <time>2022-01-13T09:40:58Z</time>
      </trkpt>
      <trkpt lat="45.38089" lon="5.79709">
        <ele>1399</ele>
        <time>2022-01-13T09:41:29Z</time>
      </trkpt>
      <trkpt lat="45.38091" lon="5.79699">
        <ele>1396</ele>
        <time>2022-01-13T09:47:45Z</time>
      </trkpt>
      <trkpt lat="45.38105" lon="5.79692">
        <ele>1398</ele>
        <time>2022-01-13T09:48:02Z</time>
      </trkpt>
      <trkpt lat="45.38109" lon="5.79688">
        <ele>1399</ele>
        <time>2022-01-13T09:48:10Z</time>
      </trkpt>
      <trkpt lat="45.38123" lon="5.79683">
        <ele>1401</ele>
        <time>2022-01-13T09:48:34Z</time>
      </trkpt>
      <trkpt lat="45.38128" lon="5.79684">
        <ele>1402</ele>
        <time>2022-01-13T09:48:40Z</time>
      </trkpt>
      <trkpt lat="45.38139" lon="5.7969">
        <ele>1404</ele>
        <time>2022-01-13T09:48:58Z</time>
      </trkpt>
      <trkpt lat="45.38145" lon="5.79689">
        <ele>1406</ele>
        <time>2022-01-13T09:49:10Z</time>
      </trkpt>
      <trkpt lat="45.3816" lon="5.79684">
        <ele>1409</ele>
        <time>2022-01-13T09:49:33Z</time>
      </trkpt>
      <trkpt lat="45.38173" lon="5.79683">
        <ele>1412</ele>
        <time>2022-01-13T09:49:57Z</time>
      </trkpt>
      <trkpt lat="45.38181" lon="5.79678">
        <ele>1414</ele>
        <time>2022-01-13T09:50:09Z</time>
      </trkpt>
      <trkpt lat="45.38187" lon="5.79681">
        <ele>1415</ele>
        <time>2022-01-13T09:50:21Z</time>
      </trkpt>
      <trkpt lat="45.38194" lon="5.79679">
        <ele>1416</ele>
        <time>2022-01-13T09:50:33Z</time>
      </trkpt>
      <trkpt lat="45.382" lon="5.79681">
        <ele>1418</ele>
        <time>2022-01-13T09:50:45Z</time>
      </trkpt>
      <trkpt lat="45.38207" lon="5.79682">
        <ele>1419</ele>
        <time>2022-01-13T09:50:57Z</time>
      </trkpt>
      <trkpt lat="45.38214" lon="5.79682">
        <ele>1420</ele>
        <time>2022-01-13T09:51:09Z</time>
      </trkpt>
      <trkpt lat="45.38231" lon="5.79686">
        <ele>1425</ele>
        <time>2022-01-13T09:51:45Z</time>
      </trkpt>
      <trkpt lat="45.38236" lon="5.7969">
        <ele>1427</ele>
        <time>2022-01-13T09:51:57Z</time>
      </trkpt>
      <trkpt lat="45.38241" lon="5.79694">
        <ele>1429</ele>
        <time>2022-01-13T09:52:09Z</time>
      </trkpt>
      <trkpt lat="45.38254" lon="5.79698">
        <ele>1431</ele>
        <time>2022-01-13T09:52:33Z</time>
      </trkpt>
      <trkpt lat="45.3828" lon="5.79697">
        <ele>1435</ele>
        <time>2022-01-13T09:53:12Z</time>
      </trkpt>
      <trkpt lat="45.38309" lon="5.79695">
        <ele>1439</ele>
        <time>2022-01-13T09:53:54Z</time>
      </trkpt>
      <trkpt lat="45.38315" lon="5.79694">
        <ele>1441</ele>
        <time>2022-01-13T09:54:06Z</time>
      </trkpt>
      <trkpt lat="45.38322" lon="5.79692">
        <ele>1442</ele>
        <time>2022-01-13T09:54:18Z</time>
      </trkpt>
      <trkpt lat="45.38331" lon="5.79693">
        <ele>1443</ele>
        <time>2022-01-13T09:54:30Z</time>
      </trkpt>
      <trkpt lat="45.3834" lon="5.79689">
        <ele>1445</ele>
        <time>2022-01-13T09:54:42Z</time>
      </trkpt>
      <trkpt lat="45.38346" lon="5.7969">
        <ele>1447</ele>
        <time>2022-01-13T09:54:54Z</time>
      </trkpt>
      <trkpt lat="45.38369" lon="5.79682">
        <ele>1451</ele>
        <time>2022-01-13T09:55:30Z</time>
      </trkpt>
      <trkpt lat="45.38382" lon="5.79681">
        <ele>1455</ele>
        <time>2022-01-13T09:56:01Z</time>
      </trkpt>
      <trkpt lat="45.38403" lon="5.79688">
        <ele>1459</ele>
        <time>2022-01-13T09:56:33Z</time>
      </trkpt>
      <trkpt lat="45.38413" lon="5.79692">
        <ele>1462</ele>
        <time>2022-01-13T09:56:56Z</time>
      </trkpt>
      <trkpt lat="45.38434" lon="5.79697">
        <ele>1466</ele>
        <time>2022-01-13T09:57:32Z</time>
      </trkpt>
      <trkpt lat="45.38445" lon="5.79702">
        <ele>1469</ele>
        <time>2022-01-13T09:57:56Z</time>
      </trkpt>
      <trkpt lat="45.38445" lon="5.79709">
        <ele>1471</ele>
        <time>2022-01-13T09:58:14Z</time>
      </trkpt>
      <trkpt lat="45.38439" lon="5.79716">
        <ele>1472</ele>
        <time>2022-01-13T09:58:26Z</time>
      </trkpt>
      <trkpt lat="45.38436" lon="5.79724">
        <ele>1473</ele>
        <time>2022-01-13T09:58:38Z</time>
      </trkpt>
      <trkpt lat="45.38426" lon="5.79736">
        <ele>1477</ele>
        <time>2022-01-13T09:59:02Z</time>
      </trkpt>
      <trkpt lat="45.38427" lon="5.79745">
        <ele>1478</ele>
        <time>2022-01-13T09:59:14Z</time>
      </trkpt>
      <trkpt lat="45.38434" lon="5.79751">
        <ele>1479</ele>
        <time>2022-01-13T09:59:26Z</time>
      </trkpt>
      <trkpt lat="45.38438" lon="5.79755">
        <ele>1481</ele>
        <time>2022-01-13T09:59:38Z</time>
      </trkpt>
      <trkpt lat="45.38442" lon="5.79762">
        <ele>1482</ele>
        <time>2022-01-13T09:59:50Z</time>
      </trkpt>
      <trkpt lat="45.38435" lon="5.7977">
        <ele>1483</ele>
        <time>2022-01-13T10:00:02Z</time>
      </trkpt>
      <trkpt lat="45.38427" lon="5.79775">
        <ele>1484</ele>
        <time>2022-01-13T10:00:13Z</time>
      </trkpt>
      <trkpt lat="45.38409" lon="5.79792">
        <ele>1487</ele>
        <time>2022-01-13T10:00:47Z</time>
      </trkpt>
      <trkpt lat="45.3839" lon="5.7981">
        <ele>1491</ele>
        <time>2022-01-13T10:01:23Z</time>
      </trkpt>
      <trkpt lat="45.38383" lon="5.79815">
        <ele>1492</ele>
        <time>2022-01-13T10:01:35Z</time>
      </trkpt>
      <trkpt lat="45.38378" lon="5.7982">
        <ele>1493</ele>
        <time>2022-01-13T10:01:47Z</time>
      </trkpt>
      <trkpt lat="45.38379" lon="5.7983">
        <ele>1495</ele>
        <time>2022-01-13T10:01:59Z</time>
      </trkpt>
      <trkpt lat="45.38373" lon="5.79833">
        <ele>1494</ele>
        <time>2022-01-13T10:05:33Z</time>
      </trkpt>
      <trkpt lat="45.38369" lon="5.79835">
        <ele>1493</ele>
        <time>2022-01-13T10:05:37Z</time>
      </trkpt>
      <trkpt lat="45.38358" lon="5.79843">
        <ele>1492</ele>
        <time>2022-01-13T10:05:44Z</time>
      </trkpt>
      <trkpt lat="45.3832" lon="5.79887">
        <ele>1482</ele>
        <time>2022-01-13T10:06:08Z</time>
      </trkpt>
      <trkpt lat="45.38313" lon="5.79897">
        <ele>1479</ele>
        <time>2022-01-13T10:06:15Z</time>
      </trkpt>
      <trkpt lat="45.38301" lon="5.79911">
        <ele>1475</ele>
        <time>2022-01-13T10:06:28Z</time>
      </trkpt>
      <trkpt lat="45.38298" lon="5.79916">
        <ele>1473</ele>
        <time>2022-01-13T10:06:33Z</time>
      </trkpt>
      <trkpt lat="45.38289" lon="5.79921">
        <ele>1470</ele>
        <time>2022-01-13T10:06:40Z</time>
      </trkpt>
      <trkpt lat="45.38285" lon="5.7993">
        <ele>1468</ele>
        <time>2022-01-13T10:06:56Z</time>
      </trkpt>
      <trkpt lat="45.38269" lon="5.79953">
        <ele>1462</ele>
        <time>2022-01-13T10:07:13Z</time>
      </trkpt>
      <trkpt lat="45.38268" lon="5.79961">
        <ele>1461</ele>
        <time>2022-01-13T10:07:18Z</time>
      </trkpt>
      <trkpt lat="45.38264" lon="5.79968">
        <ele>1460</ele>
        <time>2022-01-13T10:07:21Z</time>
      </trkpt>
      <trkpt lat="45.38261" lon="5.79982">
        <ele>1458</ele>
        <time>2022-01-13T10:07:52Z</time>
      </trkpt>
      <trkpt lat="45.38255" lon="5.79995">
        <ele>1454</ele>
        <time>2022-01-13T10:08:07Z</time>
      </trkpt>
      <trkpt lat="45.3824" lon="5.7999">
        <ele>1451</ele>
        <time>2022-01-13T10:08:15Z</time>
      </trkpt>
      <trkpt lat="45.38225" lon="5.7995">
        <ele>1444</ele>
        <time>2022-01-13T10:08:29Z</time>
      </trkpt>
      <trkpt lat="45.38218" lon="5.79938">
        <ele>1443</ele>
        <time>2022-01-13T10:08:32Z</time>
      </trkpt>
      <trkpt lat="45.38192" lon="5.79913">
        <ele>1436</ele>
        <time>2022-01-13T10:08:41Z</time>
      </trkpt>
      <trkpt lat="45.38188" lon="5.79923">
        <ele>1432</ele>
        <time>2022-01-13T10:10:12Z</time>
      </trkpt>
      <trkpt lat="45.38187" lon="5.79929">
        <ele>1432</ele>
        <time>2022-01-13T10:10:15Z</time>
      </trkpt>
      <trkpt lat="45.38189" lon="5.79937">
        <ele>1430</ele>
        <time>2022-01-13T10:10:23Z</time>
      </trkpt>
      <trkpt lat="45.38192" lon="5.79941">
        <ele>1430</ele>
        <time>2022-01-13T10:10:26Z</time>
      </trkpt>
      <trkpt lat="45.38193" lon="5.79949">
        <ele>1429</ele>
        <time>2022-01-13T10:10:29Z</time>
      </trkpt>
      <trkpt lat="45.38184" lon="5.79984">
        <ele>1422</ele>
        <time>2022-01-13T10:10:46Z</time>
      </trkpt>
      <trkpt lat="45.38184" lon="5.79992">
        <ele>1421</ele>
        <time>2022-01-13T10:10:50Z</time>
      </trkpt>
      <trkpt lat="45.38181" lon="5.80006">
        <ele>1420</ele>
        <time>2022-01-13T10:10:54Z</time>
      </trkpt>
      <trkpt lat="45.38179" lon="5.80011">
        <ele>1417</ele>
        <time>2022-01-13T10:10:59Z</time>
      </trkpt>
      <trkpt lat="45.38176" lon="5.80019">
        <ele>1417</ele>
        <time>2022-01-13T10:11:16Z</time>
      </trkpt>
      <trkpt lat="45.38173" lon="5.80049">
        <ele>1412</ele>
        <time>2022-01-13T10:11:25Z</time>
      </trkpt>
      <trkpt lat="45.38169" lon="5.80064">
        <ele>1409</ele>
        <time>2022-01-13T10:11:29Z</time>
      </trkpt>
      <trkpt lat="45.38169" lon="5.80078">
        <ele>1406</ele>
        <time>2022-01-13T10:11:49Z</time>
      </trkpt>
      <trkpt lat="45.38165" lon="5.80098">
        <ele>1403</ele>
        <time>2022-01-13T10:11:54Z</time>
      </trkpt>
      <trkpt lat="45.38162" lon="5.80096">
        <ele>1399</ele>
        <time>2022-01-13T10:12:17Z</time>
      </trkpt>
      <trkpt lat="45.38162" lon="5.80105">
        <ele>1398</ele>
        <time>2022-01-13T10:12:22Z</time>
      </trkpt>
      <trkpt lat="45.38159" lon="5.80111">
        <ele>1398</ele>
        <time>2022-01-13T10:12:30Z</time>
      </trkpt>
      <trkpt lat="45.3815" lon="5.80125">
        <ele>1395</ele>
        <time>2022-01-13T10:12:37Z</time>
      </trkpt>
      <trkpt lat="45.38141" lon="5.80137">
        <ele>1392</ele>
        <time>2022-01-13T10:12:52Z</time>
      </trkpt>
      <trkpt lat="45.38136" lon="5.80144">
        <ele>1391</ele>
        <time>2022-01-13T10:12:54Z</time>
      </trkpt>
      <trkpt lat="45.38117" lon="5.8016">
        <ele>1387</ele>
        <time>2022-01-13T10:13:02Z</time>
      </trkpt>
      <trkpt lat="45.38113" lon="5.80171">
        <ele>1385</ele>
        <time>2022-01-13T10:13:34Z</time>
      </trkpt>
      <trkpt lat="45.38109" lon="5.80176">
        <ele>1385</ele>
        <time>2022-01-13T10:13:37Z</time>
      </trkpt>
      <trkpt lat="45.38105" lon="5.80182">
        <ele>1384</ele>
        <time>2022-01-13T10:13:39Z</time>
      </trkpt>
      <trkpt lat="45.38099" lon="5.80192">
        <ele>1383</ele>
        <time>2022-01-13T10:13:45Z</time>
      </trkpt>
      <trkpt lat="45.38088" lon="5.80197">
        <ele>1382</ele>
        <time>2022-01-13T10:13:51Z</time>
      </trkpt>
      <trkpt lat="45.38081" lon="5.80202">
        <ele>1380</ele>
        <time>2022-01-13T10:14:00Z</time>
      </trkpt>
      <trkpt lat="45.38078" lon="5.80209">
        <ele>1380</ele>
        <time>2022-01-13T10:14:05Z</time>
      </trkpt>
      <trkpt lat="45.3807" lon="5.80224">
        <ele>1381</ele>
        <time>2022-01-13T10:14:18Z</time>
      </trkpt>
      <trkpt lat="45.3807" lon="5.80231">
        <ele>1381</ele>
        <time>2022-01-13T10:14:23Z</time>
      </trkpt>
      <trkpt lat="45.38072" lon="5.8024">
        <ele>1382</ele>
        <time>2022-01-13T10:14:31Z</time>
      </trkpt>
      <trkpt lat="45.38077" lon="5.80256">
        <ele>1385</ele>
        <time>2022-01-13T10:14:49Z</time>
      </trkpt>
      <trkpt lat="45.38077" lon="5.80264">
        <ele>1386</ele>
        <time>2022-01-13T10:14:55Z</time>
      </trkpt>
      <trkpt lat="45.38078" lon="5.8027">
        <ele>1388</ele>
        <time>2022-01-13T10:15:03Z</time>
      </trkpt>
      <trkpt lat="45.38079" lon="5.80294">
        <ele>1392</ele>
        <time>2022-01-13T10:15:33Z</time>
      </trkpt>
      <trkpt lat="45.38081" lon="5.80305">
        <ele>1394</ele>
        <time>2022-01-13T10:15:45Z</time>
      </trkpt>
      <trkpt lat="45.38081" lon="5.80314">
        <ele>1395</ele>
        <time>2022-01-13T10:15:57Z</time>
      </trkpt>
      <trkpt lat="45.38088" lon="5.80319">
        <ele>1397</ele>
        <time>2022-01-13T10:16:09Z</time>
      </trkpt>
      <trkpt lat="45.38114" lon="5.80324">
        <ele>1402</ele>
        <time>2022-01-13T10:16:45Z</time>
      </trkpt>
      <trkpt lat="45.3812" lon="5.80323">
        <ele>1403</ele>
        <time>2022-01-13T10:16:54Z</time>
      </trkpt>
      <trkpt lat="45.38124" lon="5.80325">
        <ele>1404</ele>
        <time>2022-01-13T10:16:59Z</time>
      </trkpt>
      <trkpt lat="45.38136" lon="5.80322">
        <ele>1407</ele>
        <time>2022-01-13T10:17:19Z</time>
      </trkpt>
      <trkpt lat="45.38143" lon="5.80316">
        <ele>1408</ele>
        <time>2022-01-13T10:17:31Z</time>
      </trkpt>
      <trkpt lat="45.38171" lon="5.803">
        <ele>1414</ele>
        <time>2022-01-13T10:18:16Z</time>
      </trkpt>
      <trkpt lat="45.38176" lon="5.80293">
        <ele>1415</ele>
        <time>2022-01-13T10:18:28Z</time>
      </trkpt>
      <trkpt lat="45.3819" lon="5.80279">
        <ele>1418</ele>
        <time>2022-01-13T10:18:52Z</time>
      </trkpt>
      <trkpt lat="45.38194" lon="5.80276">
        <ele>1419</ele>
        <time>2022-01-13T10:18:58Z</time>
      </trkpt>
      <trkpt lat="45.3821" lon="5.80253">
        <ele>1423</ele>
        <time>2022-01-13T10:19:33Z</time>
      </trkpt>
      <trkpt lat="45.38216" lon="5.80231">
        <ele>1426</ele>
        <time>2022-01-13T10:19:57Z</time>
      </trkpt>
      <trkpt lat="45.38222" lon="5.80231">
        <ele>1427</ele>
        <time>2022-01-13T10:20:09Z</time>
      </trkpt>
      <trkpt lat="45.38224" lon="5.80239">
        <ele>1429</ele>
        <time>2022-01-13T10:20:21Z</time>
      </trkpt>
      <trkpt lat="45.38216" lon="5.80261">
        <ele>1432</ele>
        <time>2022-01-13T10:20:45Z</time>
      </trkpt>
      <trkpt lat="45.38211" lon="5.80291">
        <ele>1436</ele>
        <time>2022-01-13T10:21:21Z</time>
      </trkpt>
      <trkpt lat="45.38211" lon="5.80298">
        <ele>1436</ele>
        <time>2022-01-13T10:21:27Z</time>
      </trkpt>
      <trkpt lat="45.38211" lon="5.80308">
        <ele>1438</ele>
        <time>2022-01-13T10:21:39Z</time>
      </trkpt>
      <trkpt lat="45.38216" lon="5.80326">
        <ele>1441</ele>
        <time>2022-01-13T10:22:03Z</time>
      </trkpt>
      <trkpt lat="45.38219" lon="5.80335">
        <ele>1443</ele>
        <time>2022-01-13T10:22:15Z</time>
      </trkpt>
      <trkpt lat="45.38218" lon="5.80346">
        <ele>1444</ele>
        <time>2022-01-13T10:22:27Z</time>
      </trkpt>
      <trkpt lat="45.38212" lon="5.80368">
        <ele>1446</ele>
        <time>2022-01-13T10:22:51Z</time>
      </trkpt>
      <trkpt lat="45.38202" lon="5.80378">
        <ele>1448</ele>
        <time>2022-01-13T10:23:09Z</time>
      </trkpt>
      <trkpt lat="45.38198" lon="5.80385">
        <ele>1450</ele>
        <time>2022-01-13T10:23:21Z</time>
      </trkpt>
      <trkpt lat="45.38195" lon="5.80393">
        <ele>1452</ele>
        <time>2022-01-13T10:23:33Z</time>
      </trkpt>
      <trkpt lat="45.38191" lon="5.80401">
        <ele>1453</ele>
        <time>2022-01-13T10:23:45Z</time>
      </trkpt>
      <trkpt lat="45.3819" lon="5.80411">
        <ele>1454</ele>
        <time>2022-01-13T10:23:57Z</time>
      </trkpt>
      <trkpt lat="45.38192" lon="5.80421">
        <ele>1456</ele>
        <time>2022-01-13T10:24:09Z</time>
      </trkpt>
      <trkpt lat="45.38188" lon="5.80429">
        <ele>1457</ele>
        <time>2022-01-13T10:24:21Z</time>
      </trkpt>
      <trkpt lat="45.3818" lon="5.80447">
        <ele>1461</ele>
        <time>2022-01-13T10:24:45Z</time>
      </trkpt>
      <trkpt lat="45.38164" lon="5.80461">
        <ele>1464</ele>
        <time>2022-01-13T10:25:15Z</time>
      </trkpt>
      <trkpt lat="45.38145" lon="5.80462">
        <ele>1468</ele>
        <time>2022-01-13T10:25:51Z</time>
      </trkpt>
      <trkpt lat="45.38138" lon="5.80466">
        <ele>1470</ele>
        <time>2022-01-13T10:26:03Z</time>
      </trkpt>
      <trkpt lat="45.38134" lon="5.80469">
        <ele>1470</ele>
        <time>2022-01-13T10:26:09Z</time>
      </trkpt>
      <trkpt lat="45.3813" lon="5.80473">
        <ele>1471</ele>
        <time>2022-01-13T10:26:15Z</time>
      </trkpt>
      <trkpt lat="45.38124" lon="5.80476">
        <ele>1472</ele>
        <time>2022-01-13T10:26:22Z</time>
      </trkpt>
      <trkpt lat="45.38111" lon="5.80488">
        <ele>1475</ele>
        <time>2022-01-13T10:26:46Z</time>
      </trkpt>
      <trkpt lat="45.38098" lon="5.80521">
        <ele>1477</ele>
        <time>2022-01-13T10:27:22Z</time>
      </trkpt>
      <trkpt lat="45.38084" lon="5.80559">
        <ele>1481</ele>
        <time>2022-01-13T10:28:02Z</time>
      </trkpt>
      <trkpt lat="45.38079" lon="5.80565">
        <ele>1483</ele>
        <time>2022-01-13T10:28:14Z</time>
      </trkpt>
      <trkpt lat="45.38076" lon="5.80572">
        <ele>1485</ele>
        <time>2022-01-13T10:28:26Z</time>
      </trkpt>
      <trkpt lat="45.3807" lon="5.8058">
        <ele>1486</ele>
        <time>2022-01-13T10:28:38Z</time>
      </trkpt>
      <trkpt lat="45.3807" lon="5.80593">
        <ele>1486</ele>
        <time>2022-01-13T10:30:34Z</time>
      </trkpt>
      <trkpt lat="45.3807" lon="5.80603">
        <ele>1489</ele>
        <time>2022-01-13T10:30:48Z</time>
      </trkpt>
      <trkpt lat="45.38074" lon="5.80604">
        <ele>1491</ele>
        <time>2022-01-13T10:31:06Z</time>
      </trkpt>
      <trkpt lat="45.38095" lon="5.80607">
        <ele>1497</ele>
        <time>2022-01-13T10:31:44Z</time>
      </trkpt>
      <trkpt lat="45.38105" lon="5.80604">
        <ele>1499</ele>
        <time>2022-01-13T10:32:02Z</time>
      </trkpt>
      <trkpt lat="45.38114" lon="5.80599">
        <ele>1502</ele>
        <time>2022-01-13T10:32:20Z</time>
      </trkpt>
      <trkpt lat="45.38115" lon="5.80606">
        <ele>1504</ele>
        <time>2022-01-13T10:32:38Z</time>
      </trkpt>
      <trkpt lat="45.38111" lon="5.80611">
        <ele>1507</ele>
        <time>2022-01-13T10:32:56Z</time>
      </trkpt>
      <trkpt lat="45.38113" lon="5.80618">
        <ele>1508</ele>
        <time>2022-01-13T10:33:08Z</time>
      </trkpt>
      <trkpt lat="45.38119" lon="5.80618">
        <ele>1511</ele>
        <time>2022-01-13T10:33:26Z</time>
      </trkpt>
      <trkpt lat="45.38126" lon="5.80613">
        <ele>1512</ele>
        <time>2022-01-13T10:33:37Z</time>
      </trkpt>
      <trkpt lat="45.38137" lon="5.80608">
        <ele>1515</ele>
        <time>2022-01-13T10:33:58Z</time>
      </trkpt>
      <trkpt lat="45.38134" lon="5.80623">
        <ele>1519</ele>
        <time>2022-01-13T10:34:23Z</time>
      </trkpt>
      <trkpt lat="45.38134" lon="5.80638">
        <ele>1522</ele>
        <time>2022-01-13T10:34:47Z</time>
      </trkpt>
      <trkpt lat="45.38132" lon="5.80648">
        <ele>1524</ele>
        <time>2022-01-13T10:34:59Z</time>
      </trkpt>
      <trkpt lat="45.38132" lon="5.80656">
        <ele>1526</ele>
        <time>2022-01-13T10:35:13Z</time>
      </trkpt>
      <trkpt lat="45.38131" lon="5.80681">
        <ele>1531</ele>
        <time>2022-01-13T10:35:55Z</time>
      </trkpt>
      <trkpt lat="45.38132" lon="5.80707">
        <ele>1534</ele>
        <time>2022-01-13T10:36:25Z</time>
      </trkpt>
      <trkpt lat="45.38143" lon="5.80733">
        <ele>1539</ele>
        <time>2022-01-13T10:37:01Z</time>
      </trkpt>
      <trkpt lat="45.38149" lon="5.80745">
        <ele>1541</ele>
        <time>2022-01-13T10:37:19Z</time>
      </trkpt>
      <trkpt lat="45.38155" lon="5.80757">
        <ele>1545</ele>
        <time>2022-01-13T10:37:45Z</time>
      </trkpt>
      <trkpt lat="45.3816" lon="5.8077">
        <ele>1547</ele>
        <time>2022-01-13T10:37:58Z</time>
      </trkpt>
      <trkpt lat="45.38165" lon="5.80783">
        <ele>1549</ele>
        <time>2022-01-13T10:38:16Z</time>
      </trkpt>
      <trkpt lat="45.38169" lon="5.80796">
        <ele>1552</ele>
        <time>2022-01-13T10:38:40Z</time>
      </trkpt>
      <trkpt lat="45.38186" lon="5.80821">
        <ele>1557</ele>
        <time>2022-01-13T10:39:18Z</time>
      </trkpt>
      <trkpt lat="45.38194" lon="5.80827">
        <ele>1558</ele>
        <time>2022-01-13T10:39:26Z</time>
      </trkpt>
      <trkpt lat="45.38193" lon="5.80843">
        <ele>1561</ele>
        <time>2022-01-13T10:39:52Z</time>
      </trkpt>
      <trkpt lat="45.38187" lon="5.80859">
        <ele>1563</ele>
        <time>2022-01-13T10:40:08Z</time>
      </trkpt>
      <trkpt lat="45.38187" lon="5.80873">
        <ele>1564</ele>
        <time>2022-01-13T10:40:22Z</time>
      </trkpt>
      <trkpt lat="45.38184" lon="5.80897">
        <ele>1567</ele>
        <time>2022-01-13T10:40:44Z</time>
      </trkpt>
      <trkpt lat="45.38178" lon="5.80907">
        <ele>1569</ele>
        <time>2022-01-13T10:41:04Z</time>
      </trkpt>
      <trkpt lat="45.3817" lon="5.80918">
        <ele>1573</ele>
        <time>2022-01-13T10:41:28Z</time>
      </trkpt>
      <trkpt lat="45.38173" lon="5.8093">
        <ele>1575</ele>
        <time>2022-01-13T10:41:46Z</time>
      </trkpt>
      <trkpt lat="45.38182" lon="5.80933">
        <ele>1578</ele>
        <time>2022-01-13T10:42:10Z</time>
      </trkpt>
      <trkpt lat="45.38172" lon="5.80944">
        <ele>1580</ele>
        <time>2022-01-13T10:45:40Z</time>
      </trkpt>
      <trkpt lat="45.38169" lon="5.80957">
        <ele>1584</ele>
        <time>2022-01-13T10:46:10Z</time>
      </trkpt>
      <trkpt lat="45.3816" lon="5.80965">
        <ele>1590</ele>
        <time>2022-01-13T10:46:59Z</time>
      </trkpt>
      <trkpt lat="45.38154" lon="5.80976">
        <ele>1593</ele>
        <time>2022-01-13T10:47:23Z</time>
      </trkpt>
      <trkpt lat="45.38158" lon="5.80991">
        <ele>1596</ele>
        <time>2022-01-13T10:47:47Z</time>
      </trkpt>
      <trkpt lat="45.3816" lon="5.81004">
        <ele>1601</ele>
        <time>2022-01-13T10:48:40Z</time>
      </trkpt>
      <trkpt lat="45.38157" lon="5.81016">
        <ele>1607</ele>
        <time>2022-01-13T10:49:28Z</time>
      </trkpt>
      <trkpt lat="45.38161" lon="5.81023">
        <ele>1609</ele>
        <time>2022-01-13T10:49:52Z</time>
      </trkpt>
      <trkpt lat="45.38158" lon="5.81028">
        <ele>1610</ele>
        <time>2022-01-13T10:50:10Z</time>
      </trkpt>
      <trkpt lat="45.38153" lon="5.81029">
        <ele>1611</ele>
        <time>2022-01-13T10:50:22Z</time>
      </trkpt>
      <trkpt lat="45.38156" lon="5.8104">
        <ele>1615</ele>
        <time>2022-01-13T10:51:04Z</time>
      </trkpt>
      <trkpt lat="45.38152" lon="5.81041">
        <ele>1616</ele>
        <time>2022-01-13T10:51:16Z</time>
      </trkpt>
      <trkpt lat="45.38152" lon="5.81049">
        <ele>1619</ele>
        <time>2022-01-13T10:51:40Z</time>
      </trkpt>
      <trkpt lat="45.38148" lon="5.81047">
        <ele>1619</ele>
        <time>2022-01-13T10:51:52Z</time>
      </trkpt>
      <trkpt lat="45.38137" lon="5.81049">
        <ele>1623</ele>
        <time>2022-01-13T10:52:22Z</time>
      </trkpt>
      <trkpt lat="45.38126" lon="5.81049">
        <ele>1627</ele>
        <time>2022-01-13T10:52:52Z</time>
      </trkpt>
      <trkpt lat="45.38137" lon="5.81074">
        <ele>1633</ele>
        <time>2022-01-13T10:53:40Z</time>
      </trkpt>
      <trkpt lat="45.3814" lon="5.81089">
        <ele>1635</ele>
        <time>2022-01-13T10:53:58Z</time>
      </trkpt>
      <trkpt lat="45.38149" lon="5.81095">
        <ele>1637</ele>
        <time>2022-01-13T10:54:22Z</time>
      </trkpt>
      <trkpt lat="45.38162" lon="5.81094">
        <ele>1640</ele>
        <time>2022-01-13T10:54:40Z</time>
      </trkpt>
      <trkpt lat="45.38156" lon="5.81101">
        <ele>1641</ele>
        <time>2022-01-13T10:54:58Z</time>
      </trkpt>
      <trkpt lat="45.3815" lon="5.81103">
        <ele>1642</ele>
        <time>2022-01-13T10:55:21Z</time>
      </trkpt>
      <trkpt lat="45.38146" lon="5.81106">
        <ele>1643</ele>
        <time>2022-01-13T10:55:39Z</time>
      </trkpt>
      <trkpt lat="45.38145" lon="5.81106">
        <ele>1643</ele>
        <time>2022-01-13T10:56:42Z</time>
      </trkpt>
      <trkpt lat="45.3814" lon="5.81106">
        <ele>1643</ele>
        <time>2022-01-13T10:56:51Z</time>
      </trkpt>
      <trkpt lat="45.38143" lon="5.81115">
        <ele>1645</ele>
        <time>2022-01-13T10:57:03Z</time>
      </trkpt>
      <trkpt lat="45.38142" lon="5.81122">
        <ele>1645</ele>
        <time>2022-01-13T10:57:15Z</time>
      </trkpt>
      <trkpt lat="45.38139" lon="5.81131">
        <ele>1646</ele>
        <time>2022-01-13T10:57:25Z</time>
      </trkpt>
      <trkpt lat="45.38144" lon="5.81134">
        <ele>1647</ele>
        <time>2022-01-13T10:57:33Z</time>
      </trkpt>
      <trkpt lat="45.38168" lon="5.81125">
        <ele>1654</ele>
        <time>2022-01-13T10:58:29Z</time>
      </trkpt>
      <trkpt lat="45.38178" lon="5.81119">
        <ele>1656</ele>
        <time>2022-01-13T10:58:47Z</time>
      </trkpt>
      <trkpt lat="45.38191" lon="5.81115">
        <ele>1659</ele>
        <time>2022-01-13T10:59:17Z</time>
      </trkpt>
      <trkpt lat="45.38191" lon="5.81113">
        <ele>1661</ele>
        <time>2022-01-13T10:59:53Z</time>
      </trkpt>
      <trkpt lat="45.38198" lon="5.81116">
        <ele>1662</ele>
        <time>2022-01-13T11:00:11Z</time>
      </trkpt>
      <trkpt lat="45.38203" lon="5.81114">
        <ele>1664</ele>
        <time>2022-01-13T11:00:26Z</time>
      </trkpt>
      <trkpt lat="45.382" lon="5.81122">
        <ele>1665</ele>
        <time>2022-01-13T11:00:50Z</time>
      </trkpt>
      <trkpt lat="45.38195" lon="5.81126">
        <ele>1666</ele>
        <time>2022-01-13T11:01:02Z</time>
      </trkpt>
      <trkpt lat="45.38198" lon="5.81129">
        <ele>1669</ele>
        <time>2022-01-13T11:01:44Z</time>
      </trkpt>
      <trkpt lat="45.38191" lon="5.81136">
        <ele>1671</ele>
        <time>2022-01-13T11:02:14Z</time>
      </trkpt>
      <trkpt lat="45.38185" lon="5.81144">
        <ele>1672</ele>
        <time>2022-01-13T11:02:26Z</time>
      </trkpt>
      <trkpt lat="45.3818" lon="5.81148">
        <ele>1673</ele>
        <time>2022-01-13T11:02:38Z</time>
      </trkpt>
      <trkpt lat="45.38178" lon="5.81154">
        <ele>1674</ele>
        <time>2022-01-13T11:02:45Z</time>
      </trkpt>
      <trkpt lat="45.38173" lon="5.81156">
        <ele>1676</ele>
        <time>2022-01-13T11:03:04Z</time>
      </trkpt>
      <trkpt lat="45.3817" lon="5.81169">
        <ele>1679</ele>
        <time>2022-01-13T11:03:28Z</time>
      </trkpt>
      <trkpt lat="45.38175" lon="5.81169">
        <ele>1681</ele>
        <time>2022-01-13T11:03:40Z</time>
      </trkpt>
      <trkpt lat="45.38173" lon="5.81182">
        <ele>1683</ele>
        <time>2022-01-13T11:03:58Z</time>
      </trkpt>
      <trkpt lat="45.38182" lon="5.81188">
        <ele>1685</ele>
        <time>2022-01-13T11:04:16Z</time>
      </trkpt>
      <trkpt lat="45.38187" lon="5.81197">
        <ele>1687</ele>
        <time>2022-01-13T11:04:28Z</time>
      </trkpt>
      <trkpt lat="45.38192" lon="5.81208">
        <ele>1688</ele>
        <time>2022-01-13T11:04:47Z</time>
      </trkpt>
      <trkpt lat="45.38197" lon="5.81223">
        <ele>1690</ele>
        <time>2022-01-13T11:05:05Z</time>
      </trkpt>
      <trkpt lat="45.38205" lon="5.81231">
        <ele>1693</ele>
        <time>2022-01-13T11:05:23Z</time>
      </trkpt>
      <trkpt lat="45.38213" lon="5.81241">
        <ele>1695</ele>
        <time>2022-01-13T11:05:41Z</time>
      </trkpt>
      <trkpt lat="45.38229" lon="5.81264">
        <ele>1699</ele>
        <time>2022-01-13T11:06:17Z</time>
      </trkpt>
      <trkpt lat="45.38236" lon="5.81275">
        <ele>1702</ele>
        <time>2022-01-13T11:06:41Z</time>
      </trkpt>
      <trkpt lat="45.3825" lon="5.81279">
        <ele>1703</ele>
        <time>2022-01-13T11:06:57Z</time>
      </trkpt>
      <trkpt lat="45.3828" lon="5.81302">
        <ele>1704</ele>
        <time>2022-01-13T11:07:39Z</time>
      </trkpt>
      <trkpt lat="45.38309" lon="5.81317">
        <ele>1705</ele>
        <time>2022-01-13T11:08:15Z</time>
      </trkpt>
      <trkpt lat="45.38328" lon="5.81326">
        <ele>1705</ele>
        <time>2022-01-13T11:08:40Z</time>
      </trkpt>
      <trkpt lat="45.38334" lon="5.81336">
        <ele>1706</ele>
        <time>2022-01-13T11:08:52Z</time>
      </trkpt>
      <trkpt lat="45.38355" lon="5.81352">
        <ele>1707</ele>
        <time>2022-01-13T11:09:22Z</time>
      </trkpt>
      <trkpt lat="45.38365" lon="5.81366">
        <ele>1708</ele>
        <time>2022-01-13T11:09:41Z</time>
      </trkpt>
      <trkpt lat="45.38369" lon="5.81369">
        <ele>1708</ele>
        <time>2022-01-13T11:09:46Z</time>
      </trkpt>
      <trkpt lat="45.38374" lon="5.81371">
        <ele>1708</ele>
        <time>2022-01-13T11:09:51Z</time>
      </trkpt>
      <trkpt lat="45.3838" lon="5.81374">
        <ele>1708</ele>
        <time>2022-01-13T11:09:58Z</time>
      </trkpt>
      <trkpt lat="45.38386" lon="5.81376">
        <ele>1708</ele>
        <time>2022-01-13T11:10:04Z</time>
      </trkpt>
      <trkpt lat="45.38391" lon="5.81373">
        <ele>1708</ele>
        <time>2022-01-13T11:10:09Z</time>
      </trkpt>
      <trkpt lat="45.38409" lon="5.81387">
        <ele>1709</ele>
        <time>2022-01-13T11:10:37Z</time>
      </trkpt>
      <trkpt lat="45.38414" lon="5.81397">
        <ele>1710</ele>
        <time>2022-01-13T11:11:02Z</time>
      </trkpt>
      <trkpt lat="45.38424" lon="5.81395">
        <ele>1710</ele>
        <time>2022-01-13T11:11:15Z</time>
      </trkpt>
      <trkpt lat="45.38427" lon="5.814">
        <ele>1710</ele>
        <time>2022-01-13T11:11:27Z</time>
      </trkpt>
      <trkpt lat="45.38433" lon="5.81404">
        <ele>1710</ele>
        <time>2022-01-13T11:11:45Z</time>
      </trkpt>
      <trkpt lat="45.38438" lon="5.81408">
        <ele>1711</ele>
        <time>2022-01-13T11:11:53Z</time>
      </trkpt>
      <trkpt lat="45.38444" lon="5.81409">
        <ele>1711</ele>
        <time>2022-01-13T11:11:59Z</time>
      </trkpt>
      <trkpt lat="45.38447" lon="5.81406">
        <ele>1711</ele>
        <time>2022-01-13T11:12:04Z</time>
      </trkpt>
      <trkpt lat="45.38454" lon="5.814">
        <ele>1711</ele>
        <time>2022-01-13T11:12:14Z</time>
      </trkpt>
      <trkpt lat="45.38456" lon="5.81393">
        <ele>1713</ele>
        <time>2022-01-13T11:12:26Z</time>
      </trkpt>
      <trkpt lat="45.38448" lon="5.81405">
        <ele>1704</ele>
        <time>2022-01-13T11:24:15Z</time>
      </trkpt>
      <trkpt lat="45.38445" lon="5.81417">
        <ele>1704</ele>
        <time>2022-01-13T11:24:24Z</time>
      </trkpt>
      <trkpt lat="45.38446" lon="5.81426">
        <ele>1705</ele>
        <time>2022-01-13T11:24:32Z</time>
      </trkpt>
      <trkpt lat="45.38446" lon="5.81441">
        <ele>1706</ele>
        <time>2022-01-13T11:24:43Z</time>
      </trkpt>
      <trkpt lat="45.38434" lon="5.81439">
        <ele>1709</ele>
        <time>2022-01-13T11:25:01Z</time>
      </trkpt>
      <trkpt lat="45.38423" lon="5.81438">
        <ele>1711</ele>
        <time>2022-01-13T11:25:24Z</time>
      </trkpt>
      <trkpt lat="45.38417" lon="5.81436">
        <ele>1713</ele>
        <time>2022-01-13T11:25:36Z</time>
      </trkpt>
      <trkpt lat="45.38412" lon="5.81436">
        <ele>1715</ele>
        <time>2022-01-13T11:25:48Z</time>
      </trkpt>
      <trkpt lat="45.38406" lon="5.81439">
        <ele>1717</ele>
        <time>2022-01-13T11:26:06Z</time>
      </trkpt>
      <trkpt lat="45.38407" lon="5.81446">
        <ele>1718</ele>
        <time>2022-01-13T11:26:24Z</time>
      </trkpt>
      <trkpt lat="45.38406" lon="5.81463">
        <ele>1720</ele>
        <time>2022-01-13T11:26:48Z</time>
      </trkpt>
      <trkpt lat="45.38397" lon="5.81489">
        <ele>1725</ele>
        <time>2022-01-13T11:27:22Z</time>
      </trkpt>
      <trkpt lat="45.3839" lon="5.8149">
        <ele>1727</ele>
        <time>2022-01-13T11:27:36Z</time>
      </trkpt>
      <trkpt lat="45.38385" lon="5.81487">
        <ele>1729</ele>
        <time>2022-01-13T11:27:48Z</time>
      </trkpt>
      <trkpt lat="45.38379" lon="5.81487">
        <ele>1731</ele>
        <time>2022-01-13T11:28:00Z</time>
      </trkpt>
      <trkpt lat="45.38374" lon="5.81489">
        <ele>1732</ele>
        <time>2022-01-13T11:28:12Z</time>
      </trkpt>
      <trkpt lat="45.38371" lon="5.81495">
        <ele>1734</ele>
        <time>2022-01-13T11:28:24Z</time>
      </trkpt>
      <trkpt lat="45.38368" lon="5.81505">
        <ele>1736</ele>
        <time>2022-01-13T11:28:36Z</time>
      </trkpt>
      <trkpt lat="45.38369" lon="5.81514">
        <ele>1737</ele>
        <time>2022-01-13T11:29:03Z</time>
      </trkpt>
      <trkpt lat="45.38371" lon="5.81542">
        <ele>1743</ele>
        <time>2022-01-13T11:29:45Z</time>
      </trkpt>
      <trkpt lat="45.38385" lon="5.81559">
        <ele>1748</ele>
        <time>2022-01-13T11:30:27Z</time>
      </trkpt>
      <trkpt lat="45.38376" lon="5.81565">
        <ele>1753</ele>
        <time>2022-01-13T11:31:27Z</time>
      </trkpt>
      <trkpt lat="45.3838" lon="5.81577">
        <ele>1759</ele>
        <time>2022-01-13T11:32:50Z</time>
      </trkpt>
      <trkpt lat="45.38384" lon="5.81579">
        <ele>1760</ele>
        <time>2022-01-13T11:33:08Z</time>
      </trkpt>
      <trkpt lat="45.38383" lon="5.81586">
        <ele>1762</ele>
        <time>2022-01-13T11:33:26Z</time>
      </trkpt>
      <trkpt lat="45.38381" lon="5.81602">
        <ele>1766</ele>
        <time>2022-01-13T11:34:08Z</time>
      </trkpt>
      <trkpt lat="45.38385" lon="5.81614">
        <ele>1768</ele>
        <time>2022-01-13T11:34:26Z</time>
      </trkpt>
      <trkpt lat="45.38375" lon="5.81618">
        <ele>1772</ele>
        <time>2022-01-13T11:34:56Z</time>
      </trkpt>
      <trkpt lat="45.38364" lon="5.81617">
        <ele>1775</ele>
        <time>2022-01-13T11:35:26Z</time>
      </trkpt>
      <trkpt lat="45.3836" lon="5.8163">
        <ele>1780</ele>
        <time>2022-01-13T11:35:56Z</time>
      </trkpt>
      <trkpt lat="45.38366" lon="5.81641">
        <ele>1783</ele>
        <time>2022-01-13T11:36:32Z</time>
      </trkpt>
      <trkpt lat="45.38365" lon="5.81647">
        <ele>1788</ele>
        <time>2022-01-13T11:37:44Z</time>
      </trkpt>
      <trkpt lat="45.38359" lon="5.81645">
        <ele>1789</ele>
        <time>2022-01-13T11:37:56Z</time>
      </trkpt>
      <trkpt lat="45.38345" lon="5.81643">
        <ele>1793</ele>
        <time>2022-01-13T11:38:51Z</time>
      </trkpt>
      <trkpt lat="45.38341" lon="5.81639">
        <ele>1794</ele>
        <time>2022-01-13T11:39:44Z</time>
      </trkpt>
      <trkpt lat="45.3834" lon="5.81644">
        <ele>1794</ele>
        <time>2022-01-13T11:41:10Z</time>
      </trkpt>
      <trkpt lat="45.38333" lon="5.81647">
        <ele>1799</ele>
        <time>2022-01-13T11:43:22Z</time>
      </trkpt>
      <trkpt lat="45.38324" lon="5.81641">
        <ele>1801</ele>
        <time>2022-01-13T11:43:46Z</time>
      </trkpt>
      <trkpt lat="45.38314" lon="5.81627">
        <ele>1804</ele>
        <time>2022-01-13T11:44:16Z</time>
      </trkpt>
      <trkpt lat="45.38308" lon="5.81626">
        <ele>1806</ele>
        <time>2022-01-13T11:44:34Z</time>
      </trkpt>
      <trkpt lat="45.38303" lon="5.81626">
        <ele>1808</ele>
        <time>2022-01-13T11:44:52Z</time>
      </trkpt>
      <trkpt lat="45.383" lon="5.81621">
        <ele>1809</ele>
        <time>2022-01-13T11:44:58Z</time>
      </trkpt>
      <trkpt lat="45.38296" lon="5.81612">
        <ele>1810</ele>
        <time>2022-01-13T11:45:10Z</time>
      </trkpt>
      <trkpt lat="45.38289" lon="5.81618">
        <ele>1812</ele>
        <time>2022-01-13T11:45:46Z</time>
      </trkpt>
      <trkpt lat="45.38288" lon="5.81627">
        <ele>1814</ele>
        <time>2022-01-13T11:45:58Z</time>
      </trkpt>
      <trkpt lat="45.38292" lon="5.81622">
        <ele>1814</ele>
        <time>2022-01-13T11:46:10Z</time>
      </trkpt>
      <trkpt lat="45.38284" lon="5.81611">
        <ele>1815</ele>
        <time>2022-01-13T11:46:33Z</time>
      </trkpt>
      <trkpt lat="45.38281" lon="5.81601">
        <ele>1817</ele>
        <time>2022-01-13T11:46:45Z</time>
      </trkpt>
      <trkpt lat="45.38272" lon="5.81585">
        <ele>1819</ele>
        <time>2022-01-13T11:47:09Z</time>
      </trkpt>
      <trkpt lat="45.38275" lon="5.81592">
        <ele>1820</ele>
        <time>2022-01-13T11:47:56Z</time>
      </trkpt>
      <trkpt lat="45.38273" lon="5.81607">
        <ele>1822</ele>
        <time>2022-01-13T11:48:14Z</time>
      </trkpt>
      <trkpt lat="45.38268" lon="5.81607">
        <ele>1824</ele>
        <time>2022-01-13T11:49:14Z</time>
      </trkpt>
      <trkpt lat="45.38263" lon="5.81601">
        <ele>1825</ele>
        <time>2022-01-13T11:49:26Z</time>
      </trkpt>
      <trkpt lat="45.38258" lon="5.81597">
        <ele>1827</ele>
        <time>2022-01-13T11:49:38Z</time>
      </trkpt>
      <trkpt lat="45.38255" lon="5.81592">
        <ele>1827</ele>
        <time>2022-01-13T11:49:44Z</time>
      </trkpt>
      <trkpt lat="45.38248" lon="5.81584">
        <ele>1828</ele>
        <time>2022-01-13T11:49:56Z</time>
      </trkpt>
      <trkpt lat="45.38235" lon="5.81572">
        <ele>1833</ele>
        <time>2022-01-13T11:50:44Z</time>
      </trkpt>
      <trkpt lat="45.38234" lon="5.81578">
        <ele>1834</ele>
        <time>2022-01-13T11:51:08Z</time>
      </trkpt>
      <trkpt lat="45.38244" lon="5.8162">
        <ele>1838</ele>
        <time>2022-01-13T11:51:56Z</time>
      </trkpt>
      <trkpt lat="45.38249" lon="5.81635">
        <ele>1840</ele>
        <time>2022-01-13T11:52:20Z</time>
      </trkpt>
      <trkpt lat="45.38251" lon="5.81642">
        <ele>1841</ele>
        <time>2022-01-13T11:52:32Z</time>
      </trkpt>
      <trkpt lat="45.38253" lon="5.81649">
        <ele>1842</ele>
        <time>2022-01-13T11:52:44Z</time>
      </trkpt>
      <trkpt lat="45.38251" lon="5.81654">
        <ele>1846</ele>
        <time>2022-01-13T11:53:21Z</time>
      </trkpt>
      <trkpt lat="45.38245" lon="5.81657">
        <ele>1847</ele>
        <time>2022-01-13T11:53:29Z</time>
      </trkpt>
      <trkpt lat="45.38241" lon="5.81658">
        <ele>1848</ele>
        <time>2022-01-13T11:53:47Z</time>
      </trkpt>
      <trkpt lat="45.38236" lon="5.81658">
        <ele>1850</ele>
        <time>2022-01-13T11:54:41Z</time>
      </trkpt>
      <trkpt lat="45.38233" lon="5.81652">
        <ele>1853</ele>
        <time>2022-01-13T11:55:53Z</time>
      </trkpt>
      <trkpt lat="45.38229" lon="5.81647">
        <ele>1853</ele>
        <time>2022-01-13T11:55:57Z</time>
      </trkpt>
      <trkpt lat="45.38212" lon="5.81635">
        <ele>1857</ele>
        <time>2022-01-13T11:56:31Z</time>
      </trkpt>
      <trkpt lat="45.38206" lon="5.81628">
        <ele>1860</ele>
        <time>2022-01-13T11:56:50Z</time>
      </trkpt>
      <trkpt lat="45.38201" lon="5.81624">
        <ele>1862</ele>
        <time>2022-01-13T11:57:02Z</time>
      </trkpt>
      <trkpt lat="45.38196" lon="5.81617">
        <ele>1864</ele>
        <time>2022-01-13T11:57:14Z</time>
      </trkpt>
      <trkpt lat="45.38175" lon="5.81607">
        <ele>1867</ele>
        <time>2022-01-13T11:57:50Z</time>
      </trkpt>
      <trkpt lat="45.3817" lon="5.81605">
        <ele>1868</ele>
        <time>2022-01-13T11:57:56Z</time>
      </trkpt>
      <trkpt lat="45.38163" lon="5.81605">
        <ele>1868</ele>
        <time>2022-01-13T11:58:08Z</time>
      </trkpt>
      <trkpt lat="45.38142" lon="5.81593">
        <ele>1872</ele>
        <time>2022-01-13T11:58:44Z</time>
      </trkpt>
      <trkpt lat="45.3812" lon="5.81582">
        <ele>1875</ele>
        <time>2022-01-13T11:59:20Z</time>
      </trkpt>
      <trkpt lat="45.38109" lon="5.81577">
        <ele>1878</ele>
        <time>2022-01-13T11:59:44Z</time>
      </trkpt>
      <trkpt lat="45.38103" lon="5.81569">
        <ele>1880</ele>
        <time>2022-01-13T11:59:56Z</time>
      </trkpt>
      <trkpt lat="45.38085" lon="5.8156">
        <ele>1884</ele>
        <time>2022-01-13T12:00:32Z</time>
      </trkpt>
      <trkpt lat="45.38072" lon="5.81556">
        <ele>1887</ele>
        <time>2022-01-13T12:00:55Z</time>
      </trkpt>
      <trkpt lat="45.38057" lon="5.81553">
        <ele>1889</ele>
        <time>2022-01-13T12:01:19Z</time>
      </trkpt>
      <trkpt lat="45.38051" lon="5.81548">
        <ele>1891</ele>
        <time>2022-01-13T12:02:31Z</time>
      </trkpt>
      <trkpt lat="45.38046" lon="5.81549">
        <ele>1892</ele>
        <time>2022-01-13T12:02:36Z</time>
      </trkpt>
      <trkpt lat="45.38042" lon="5.81547">
        <ele>1893</ele>
        <time>2022-01-13T12:02:44Z</time>
      </trkpt>
      <trkpt lat="45.38029" lon="5.81537">
        <ele>1894</ele>
        <time>2022-01-13T12:03:00Z</time>
      </trkpt>
      <trkpt lat="45.38024" lon="5.81535">
        <ele>1895</ele>
        <time>2022-01-13T12:03:05Z</time>
      </trkpt>
      <trkpt lat="45.38018" lon="5.81531">
        <ele>1895</ele>
        <time>2022-01-13T12:03:12Z</time>
      </trkpt>
      <trkpt lat="45.38012" lon="5.8153">
        <ele>1896</ele>
        <time>2022-01-13T12:03:20Z</time>
      </trkpt>
      <trkpt lat="45.38001" lon="5.81524">
        <ele>1897</ele>
        <time>2022-01-13T12:03:33Z</time>
      </trkpt>
      <trkpt lat="45.37994" lon="5.81521">
        <ele>1897</ele>
        <time>2022-01-13T12:03:37Z</time>
      </trkpt>
      <trkpt lat="45.3799" lon="5.8152">
        <ele>1897</ele>
        <time>2022-01-13T12:03:39Z</time>
      </trkpt>
      <trkpt lat="45.37985" lon="5.81518">
        <ele>1897</ele>
        <time>2022-01-13T12:03:47Z</time>
      </trkpt>
      <trkpt lat="45.37981" lon="5.81524">
        <ele>1897</ele>
        <time>2022-01-13T12:04:29Z</time>
      </trkpt>
      <trkpt lat="45.37977" lon="5.81517">
        <ele>1896</ele>
        <time>2022-01-13T12:04:39Z</time>
      </trkpt>
      <trkpt lat="45.37972" lon="5.81516">
        <ele>1895</ele>
        <time>2022-01-13T12:04:41Z</time>
      </trkpt>
      <trkpt lat="45.37967" lon="5.81516">
        <ele>1895</ele>
        <time>2022-01-13T12:04:50Z</time>
      </trkpt>
      <trkpt lat="45.37959" lon="5.81509">
        <ele>1897</ele>
        <time>2022-01-13T12:05:02Z</time>
      </trkpt>
      <trkpt lat="45.37944" lon="5.81493">
        <ele>1899</ele>
        <time>2022-01-13T12:05:27Z</time>
      </trkpt>
      <trkpt lat="45.37938" lon="5.81491">
        <ele>1900</ele>
        <time>2022-01-13T12:05:35Z</time>
      </trkpt>
      <trkpt lat="45.37931" lon="5.81488">
        <ele>1901</ele>
        <time>2022-01-13T12:05:47Z</time>
      </trkpt>
      <trkpt lat="45.37928" lon="5.81484">
        <ele>1901</ele>
        <time>2022-01-13T12:06:05Z</time>
      </trkpt>
      <trkpt lat="45.37922" lon="5.81481">
        <ele>1901</ele>
        <time>2022-01-13T12:09:22Z</time>
      </trkpt>
      <trkpt lat="45.37917" lon="5.8148">
        <ele>1901</ele>
        <time>2022-01-13T12:09:28Z</time>
      </trkpt>
      <trkpt lat="45.37908" lon="5.81475">
        <ele>1899</ele>
        <time>2022-01-13T12:09:33Z</time>
      </trkpt>
      <trkpt lat="45.37896" lon="5.81474">
        <ele>1900</ele>
        <time>2022-01-13T12:09:47Z</time>
      </trkpt>
      <trkpt lat="45.3788" lon="5.81467">
        <ele>1899</ele>
        <time>2022-01-13T12:10:04Z</time>
      </trkpt>
      <trkpt lat="45.37866" lon="5.81462">
        <ele>1901</ele>
        <time>2022-01-13T12:10:19Z</time>
      </trkpt>
      <trkpt lat="45.37861" lon="5.8146">
        <ele>1900</ele>
        <time>2022-01-13T12:10:24Z</time>
      </trkpt>
      <trkpt lat="45.3785" lon="5.81459">
        <ele>1903</ele>
        <time>2022-01-13T12:10:44Z</time>
      </trkpt>
      <trkpt lat="45.37843" lon="5.8146">
        <ele>1904</ele>
        <time>2022-01-13T12:10:56Z</time>
      </trkpt>
      <trkpt lat="45.37839" lon="5.81459">
        <ele>1905</ele>
        <time>2022-01-13T12:11:00Z</time>
      </trkpt>
      <trkpt lat="45.37833" lon="5.81462">
        <ele>1906</ele>
        <time>2022-01-13T12:11:14Z</time>
      </trkpt>
      <trkpt lat="45.37812" lon="5.81462">
        <ele>1909</ele>
        <time>2022-01-13T12:11:50Z</time>
      </trkpt>
      <trkpt lat="45.37799" lon="5.81462">
        <ele>1912</ele>
        <time>2022-01-13T12:12:13Z</time>
      </trkpt>
      <trkpt lat="45.37791" lon="5.81462">
        <ele>1913</ele>
        <time>2022-01-13T12:12:27Z</time>
      </trkpt>
      <trkpt lat="45.37786" lon="5.81463">
        <ele>1914</ele>
        <time>2022-01-13T12:12:39Z</time>
      </trkpt>
      <trkpt lat="45.37771" lon="5.81462">
        <ele>1916</ele>
        <time>2022-01-13T12:13:09Z</time>
      </trkpt>
      <trkpt lat="45.37766" lon="5.81462">
        <ele>1917</ele>
        <time>2022-01-13T12:13:14Z</time>
      </trkpt>
      <trkpt lat="45.37761" lon="5.81466">
        <ele>1918</ele>
        <time>2022-01-13T12:13:28Z</time>
      </trkpt>
      <trkpt lat="45.37751" lon="5.8147">
        <ele>1920</ele>
        <time>2022-01-13T12:13:52Z</time>
      </trkpt>
      <trkpt lat="45.37745" lon="5.81468">
        <ele>1920</ele>
        <time>2022-01-13T12:13:58Z</time>
      </trkpt>
      <trkpt lat="45.37735" lon="5.81466">
        <ele>1923</ele>
        <time>2022-01-13T12:14:30Z</time>
      </trkpt>
      <trkpt lat="45.37709" lon="5.81465">
        <ele>1926</ele>
        <time>2022-01-13T12:15:07Z</time>
      </trkpt>
      <trkpt lat="45.37701" lon="5.8145">
        <ele>1931</ele>
        <time>2022-01-13T12:15:55Z</time>
      </trkpt>
      <trkpt lat="45.37695" lon="5.81442">
        <ele>1931</ele>
        <time>2022-01-13T12:16:07Z</time>
      </trkpt>
      <trkpt lat="45.37689" lon="5.81437">
        <ele>1933</ele>
        <time>2022-01-13T12:16:25Z</time>
      </trkpt>
      <trkpt lat="45.37681" lon="5.81427">
        <ele>1934</ele>
        <time>2022-01-13T12:16:37Z</time>
      </trkpt>
      <trkpt lat="45.37676" lon="5.81423">
        <ele>1935</ele>
        <time>2022-01-13T12:16:49Z</time>
      </trkpt>
      <trkpt lat="45.37671" lon="5.81416">
        <ele>1936</ele>
        <time>2022-01-13T12:17:01Z</time>
      </trkpt>
      <trkpt lat="45.37658" lon="5.81409">
        <ele>1939</ele>
        <time>2022-01-13T12:17:33Z</time>
      </trkpt>
      <trkpt lat="45.3765" lon="5.81401">
        <ele>1942</ele>
        <time>2022-01-13T12:18:09Z</time>
      </trkpt>
      <trkpt lat="45.37641" lon="5.81394">
        <ele>1945</ele>
        <time>2022-01-13T12:19:03Z</time>
      </trkpt>
      <trkpt lat="45.37635" lon="5.81389">
        <ele>1947</ele>
        <time>2022-01-13T12:19:39Z</time>
      </trkpt>
      <trkpt lat="45.37627" lon="5.81388">
        <ele>1949</ele>
        <time>2022-01-13T12:20:09Z</time>
      </trkpt>
      <trkpt lat="45.37617" lon="5.81382">
        <ele>1953</ele>
        <time>2022-01-13T12:21:33Z</time>
      </trkpt>
      <trkpt lat="45.37617" lon="5.8138">
        <ele>1955</ele>
        <time>2022-01-13T12:22:26Z</time>
      </trkpt>
      <trkpt lat="45.37627" lon="5.81372">
        <ele>1957</ele>
        <time>2022-01-13T12:22:50Z</time>
      </trkpt>
      <trkpt lat="45.3762" lon="5.81359">
        <ele>1960</ele>
        <time>2022-01-13T12:23:25Z</time>
      </trkpt>
      <trkpt lat="45.37615" lon="5.81359">
        <ele>1962</ele>
        <time>2022-01-13T12:23:37Z</time>
      </trkpt>
      <trkpt lat="45.3761" lon="5.81358">
        <ele>1963</ele>
        <time>2022-01-13T12:23:49Z</time>
      </trkpt>
      <trkpt lat="45.37604" lon="5.81351">
        <ele>1965</ele>
        <time>2022-01-13T12:24:07Z</time>
      </trkpt>
      <trkpt lat="45.37596" lon="5.8135">
        <ele>1966</ele>
        <time>2022-01-13T12:25:24Z</time>
      </trkpt>
      <trkpt lat="45.3759" lon="5.8135">
        <ele>1966</ele>
        <time>2022-01-13T12:25:32Z</time>
      </trkpt>
      <trkpt lat="45.37586" lon="5.8135">
        <ele>1967</ele>
        <time>2022-01-13T12:25:36Z</time>
      </trkpt>
      <trkpt lat="45.37569" lon="5.81348">
        <ele>1969</ele>
        <time>2022-01-13T12:26:01Z</time>
      </trkpt>
      <trkpt lat="45.37564" lon="5.8135">
        <ele>1970</ele>
        <time>2022-01-13T12:26:07Z</time>
      </trkpt>
      <trkpt lat="45.37556" lon="5.81351">
        <ele>1970</ele>
        <time>2022-01-13T12:26:19Z</time>
      </trkpt>
      <trkpt lat="45.37548" lon="5.81349">
        <ele>1972</ele>
        <time>2022-01-13T12:26:31Z</time>
      </trkpt>
      <trkpt lat="45.37534" lon="5.8135">
        <ele>1974</ele>
        <time>2022-01-13T12:26:55Z</time>
      </trkpt>
      <trkpt lat="45.3753" lon="5.81347">
        <ele>1975</ele>
        <time>2022-01-13T12:27:00Z</time>
      </trkpt>
      <trkpt lat="45.37518" lon="5.81335">
        <ele>1974</ele>
        <time>2022-01-13T12:27:14Z</time>
      </trkpt>
      <trkpt lat="45.37498" lon="5.81329">
        <ele>1978</ele>
        <time>2022-01-13T12:27:47Z</time>
      </trkpt>
      <trkpt lat="45.3749" lon="5.81327">
        <ele>1980</ele>
        <time>2022-01-13T12:27:59Z</time>
      </trkpt>
      <trkpt lat="45.37481" lon="5.81327">
        <ele>1981</ele>
        <time>2022-01-13T12:28:11Z</time>
      </trkpt>
      <trkpt lat="45.37467" lon="5.81327">
        <ele>1982</ele>
        <time>2022-01-13T12:28:27Z</time>
      </trkpt>
      <trkpt lat="45.37462" lon="5.81326">
        <ele>1982</ele>
        <time>2022-01-13T12:28:32Z</time>
      </trkpt>
      <trkpt lat="45.37448" lon="5.81328">
        <ele>1983</ele>
        <time>2022-01-13T12:28:49Z</time>
      </trkpt>
      <trkpt lat="45.37418" lon="5.81324">
        <ele>1984</ele>
        <time>2022-01-13T12:29:22Z</time>
      </trkpt>
      <trkpt lat="45.37387" lon="5.81321">
        <ele>1984</ele>
        <time>2022-01-13T12:29:55Z</time>
      </trkpt>
      <trkpt lat="45.37359" lon="5.81318">
        <ele>1986</ele>
        <time>2022-01-13T12:30:25Z</time>
      </trkpt>
      <trkpt lat="45.3733" lon="5.81307">
        <ele>1986</ele>
        <time>2022-01-13T12:30:55Z</time>
      </trkpt>
      <trkpt lat="45.37326" lon="5.81305">
        <ele>1985</ele>
        <time>2022-01-13T12:31:00Z</time>
      </trkpt>
      <trkpt lat="45.37321" lon="5.81302">
        <ele>1986</ele>
        <time>2022-01-13T12:31:08Z</time>
      </trkpt>
      <trkpt lat="45.37315" lon="5.81287">
        <ele>1990</ele>
        <time>2022-01-13T12:31:32Z</time>
      </trkpt>
      <trkpt lat="45.37309" lon="5.8128">
        <ele>1991</ele>
        <time>2022-01-13T12:31:44Z</time>
      </trkpt>
      <trkpt lat="45.37304" lon="5.81275">
        <ele>1991</ele>
        <time>2022-01-13T12:31:56Z</time>
      </trkpt>
      <trkpt lat="45.37287" lon="5.81286">
        <ele>1995</ele>
        <time>2022-01-13T12:32:32Z</time>
      </trkpt>
      <trkpt lat="45.37269" lon="5.81297">
        <ele>1999</ele>
        <time>2022-01-13T12:33:08Z</time>
      </trkpt>
      <trkpt lat="45.37266" lon="5.81303">
        <ele>2000</ele>
        <time>2022-01-13T12:33:26Z</time>
      </trkpt>
      <trkpt lat="45.37262" lon="5.81274">
        <ele>2005</ele>
        <time>2022-01-13T12:34:08Z</time>
      </trkpt>
      <trkpt lat="45.37256" lon="5.81279">
        <ele>2006</ele>
        <time>2022-01-13T12:34:38Z</time>
      </trkpt>
      <trkpt lat="45.37245" lon="5.81286">
        <ele>2009</ele>
        <time>2022-01-13T12:35:02Z</time>
      </trkpt>
      <trkpt lat="45.37241" lon="5.81247">
        <ele>2012</ele>
        <time>2022-01-13T12:35:44Z</time>
      </trkpt>
      <trkpt lat="45.37236" lon="5.81238">
        <ele>2013</ele>
        <time>2022-01-13T12:35:56Z</time>
      </trkpt>
      <trkpt lat="45.3723" lon="5.81238">
        <ele>2014</ele>
        <time>2022-01-13T12:36:08Z</time>
      </trkpt>
      <trkpt lat="45.37222" lon="5.81253">
        <ele>2017</ele>
        <time>2022-01-13T12:36:32Z</time>
      </trkpt>
      <trkpt lat="45.37216" lon="5.8125">
        <ele>2018</ele>
        <time>2022-01-13T12:36:44Z</time>
      </trkpt>
      <trkpt lat="45.37211" lon="5.81235">
        <ele>2020</ele>
        <time>2022-01-13T12:37:02Z</time>
      </trkpt>
      <trkpt lat="45.37209" lon="5.81224">
        <ele>2021</ele>
        <time>2022-01-13T12:37:13Z</time>
      </trkpt>
      <trkpt lat="45.37207" lon="5.81215">
        <ele>2022</ele>
        <time>2022-01-13T12:37:25Z</time>
      </trkpt>
      <trkpt lat="45.37196" lon="5.81231">
        <ele>2024</ele>
        <time>2022-01-13T12:37:49Z</time>
      </trkpt>
      <trkpt lat="45.37189" lon="5.81235">
        <ele>2025</ele>
        <time>2022-01-13T12:38:01Z</time>
      </trkpt>
      <trkpt lat="45.37184" lon="5.81231">
        <ele>2026</ele>
        <time>2022-01-13T12:38:13Z</time>
      </trkpt>
      <trkpt lat="45.37178" lon="5.81229">
        <ele>2028</ele>
        <time>2022-01-13T12:38:25Z</time>
      </trkpt>
      <trkpt lat="45.37162" lon="5.81232">
        <ele>2030</ele>
        <time>2022-01-13T12:38:49Z</time>
      </trkpt>
      <trkpt lat="45.37158" lon="5.8123">
        <ele>2031</ele>
        <time>2022-01-13T12:38:55Z</time>
      </trkpt>
      <trkpt lat="45.37153" lon="5.81227">
        <ele>2031</ele>
        <time>2022-01-13T12:39:03Z</time>
      </trkpt>
      <trkpt lat="45.37142" lon="5.81212">
        <ele>2034</ele>
        <time>2022-01-13T12:39:27Z</time>
      </trkpt>
      <trkpt lat="45.37123" lon="5.81204">
        <ele>2035</ele>
        <time>2022-01-13T12:39:50Z</time>
      </trkpt>
      <trkpt lat="45.37118" lon="5.81203">
        <ele>2035</ele>
        <time>2022-01-13T12:39:55Z</time>
      </trkpt>
      <trkpt lat="45.37097" lon="5.81201">
        <ele>2038</ele>
        <time>2022-01-13T12:40:27Z</time>
      </trkpt>
      <trkpt lat="45.37079" lon="5.81205">
        <ele>2040</ele>
        <time>2022-01-13T12:40:51Z</time>
      </trkpt>
      <trkpt lat="45.37077" lon="5.81207">
        <ele>2037</ele>
        <time>2022-01-13T12:47:08Z</time>
      </trkpt>
      <trkpt lat="45.37071" lon="5.81209">
        <ele>2035</ele>
        <time>2022-01-13T12:49:02Z</time>
      </trkpt>
      <trkpt lat="45.37064" lon="5.81212">
        <ele>2035</ele>
        <time>2022-01-13T12:49:12Z</time>
      </trkpt>
      <trkpt lat="45.37053" lon="5.81208">
        <ele>2038</ele>
        <time>2022-01-13T12:49:36Z</time>
      </trkpt>
      <trkpt lat="45.37047" lon="5.81206">
        <ele>2040</ele>
        <time>2022-01-13T12:49:54Z</time>
      </trkpt>
      <trkpt lat="45.37043" lon="5.81206">
        <ele>2030</ele>
        <time>2022-01-13T13:08:27Z</time>
      </trkpt>
      <trkpt lat="45.37052" lon="5.81206">
        <ele>2029</ele>
        <time>2022-01-13T13:10:04Z</time>
      </trkpt>
      <trkpt lat="45.37064" lon="5.8121">
        <ele>2026</ele>
        <time>2022-01-13T13:10:17Z</time>
      </trkpt>
      <trkpt lat="45.37068" lon="5.81208">
        <ele>2025</ele>
        <time>2022-01-13T13:10:25Z</time>
      </trkpt>
      <trkpt lat="45.37073" lon="5.81206">
        <ele>2025</ele>
        <time>2022-01-13T13:10:37Z</time>
      </trkpt>
      <trkpt lat="45.37078" lon="5.81209">
        <ele>2020</ele>
        <time>2022-01-13T13:18:06Z</time>
      </trkpt>
      <trkpt lat="45.37087" lon="5.81206">
        <ele>2020</ele>
        <time>2022-01-13T13:18:14Z</time>
      </trkpt>
      <trkpt lat="45.37093" lon="5.81205">
        <ele>2020</ele>
        <time>2022-01-13T13:18:16Z</time>
      </trkpt>
      <trkpt lat="45.37118" lon="5.81209">
        <ele>2018</ele>
        <time>2022-01-13T13:18:21Z</time>
      </trkpt>
      <trkpt lat="45.37127" lon="5.81219">
        <ele>2016</ele>
        <time>2022-01-13T13:18:24Z</time>
      </trkpt>
      <trkpt lat="45.37131" lon="5.81221">
        <ele>2014</ele>
        <time>2022-01-13T13:18:27Z</time>
      </trkpt>
      <trkpt lat="45.37137" lon="5.81231">
        <ele>2013</ele>
        <time>2022-01-13T13:18:37Z</time>
      </trkpt>
      <trkpt lat="45.37141" lon="5.81235">
        <ele>2012</ele>
        <time>2022-01-13T13:18:39Z</time>
      </trkpt>
      <trkpt lat="45.37146" lon="5.8124">
        <ele>2012</ele>
        <time>2022-01-13T13:18:41Z</time>
      </trkpt>
      <trkpt lat="45.37161" lon="5.81234">
        <ele>2010</ele>
        <time>2022-01-13T13:18:45Z</time>
      </trkpt>
      <trkpt lat="45.37169" lon="5.81234">
        <ele>2009</ele>
        <time>2022-01-13T13:18:47Z</time>
      </trkpt>
      <trkpt lat="45.37177" lon="5.81238">
        <ele>2008</ele>
        <time>2022-01-13T13:18:49Z</time>
      </trkpt>
      <trkpt lat="45.37184" lon="5.81243">
        <ele>2007</ele>
        <time>2022-01-13T13:18:51Z</time>
      </trkpt>
      <trkpt lat="45.37198" lon="5.81245">
        <ele>2004</ele>
        <time>2022-01-13T13:18:55Z</time>
      </trkpt>
      <trkpt lat="45.3721" lon="5.81251">
        <ele>2000</ele>
        <time>2022-01-13T13:18:59Z</time>
      </trkpt>
      <trkpt lat="45.3723" lon="5.81242">
        <ele>1995</ele>
        <time>2022-01-13T13:19:05Z</time>
      </trkpt>
      <trkpt lat="45.37233" lon="5.8125">
        <ele>1993</ele>
        <time>2022-01-13T13:19:07Z</time>
      </trkpt>
      <trkpt lat="45.37239" lon="5.81259">
        <ele>1992</ele>
        <time>2022-01-13T13:19:09Z</time>
      </trkpt>
      <trkpt lat="45.37244" lon="5.81267">
        <ele>1990</ele>
        <time>2022-01-13T13:19:11Z</time>
      </trkpt>
      <trkpt lat="45.37246" lon="5.81277">
        <ele>1988</ele>
        <time>2022-01-13T13:19:13Z</time>
      </trkpt>
      <trkpt lat="45.37245" lon="5.81288">
        <ele>1987</ele>
        <time>2022-01-13T13:19:15Z</time>
      </trkpt>
      <trkpt lat="45.37254" lon="5.81285">
        <ele>1984</ele>
        <time>2022-01-13T13:19:51Z</time>
      </trkpt>
      <trkpt lat="45.37269" lon="5.81287">
        <ele>1981</ele>
        <time>2022-01-13T13:19:55Z</time>
      </trkpt>
      <trkpt lat="45.37282" lon="5.81296">
        <ele>1977</ele>
        <time>2022-01-13T13:19:59Z</time>
      </trkpt>
      <trkpt lat="45.37287" lon="5.81296">
        <ele>1975</ele>
        <time>2022-01-13T13:20:00Z</time>
      </trkpt>
      <trkpt lat="45.37298" lon="5.8129">
        <ele>1972</ele>
        <time>2022-01-13T13:20:02Z</time>
      </trkpt>
      <trkpt lat="45.37303" lon="5.81286">
        <ele>1971</ele>
        <time>2022-01-13T13:20:03Z</time>
      </trkpt>
      <trkpt lat="45.37309" lon="5.81287">
        <ele>1970</ele>
        <time>2022-01-13T13:20:04Z</time>
      </trkpt>
      <trkpt lat="45.37314" lon="5.81292">
        <ele>1968</ele>
        <time>2022-01-13T13:20:05Z</time>
      </trkpt>
      <trkpt lat="45.37325" lon="5.81306">
        <ele>1966</ele>
        <time>2022-01-13T13:20:07Z</time>
      </trkpt>
      <trkpt lat="45.37333" lon="5.81313">
        <ele>1965</ele>
        <time>2022-01-13T13:20:08Z</time>
      </trkpt>
      <trkpt lat="45.37362" lon="5.81323">
        <ele>1960</ele>
        <time>2022-01-13T13:20:12Z</time>
      </trkpt>
      <trkpt lat="45.37369" lon="5.81324">
        <ele>1960</ele>
        <time>2022-01-13T13:20:13Z</time>
      </trkpt>
      <trkpt lat="45.37462" lon="5.8133">
        <ele>1956</ele>
        <time>2022-01-13T13:20:39Z</time>
      </trkpt>
      <trkpt lat="45.3749" lon="5.8133">
        <ele>1954</ele>
        <time>2022-01-13T13:20:47Z</time>
      </trkpt>
      <trkpt lat="45.37495" lon="5.81332">
        <ele>1954</ele>
        <time>2022-01-13T13:20:48Z</time>
      </trkpt>
      <trkpt lat="45.37499" lon="5.81337">
        <ele>1954</ele>
        <time>2022-01-13T13:20:49Z</time>
      </trkpt>
      <trkpt lat="45.37505" lon="5.81336">
        <ele>1953</ele>
        <time>2022-01-13T13:20:50Z</time>
      </trkpt>
      <trkpt lat="45.37521" lon="5.81347">
        <ele>1950</ele>
        <time>2022-01-13T13:20:54Z</time>
      </trkpt>
      <trkpt lat="45.37526" lon="5.81347">
        <ele>1948</ele>
        <time>2022-01-13T13:20:56Z</time>
      </trkpt>
      <trkpt lat="45.37532" lon="5.81348">
        <ele>1947</ele>
        <time>2022-01-13T13:21:51Z</time>
      </trkpt>
      <trkpt lat="45.37539" lon="5.8135">
        <ele>1947</ele>
        <time>2022-01-13T13:21:56Z</time>
      </trkpt>
      <trkpt lat="45.37591" lon="5.81352">
        <ele>1941</ele>
        <time>2022-01-13T13:22:07Z</time>
      </trkpt>
      <trkpt lat="45.37597" lon="5.8136">
        <ele>1939</ele>
        <time>2022-01-13T13:22:09Z</time>
      </trkpt>
      <trkpt lat="45.37629" lon="5.81371">
        <ele>1931</ele>
        <time>2022-01-13T13:22:16Z</time>
      </trkpt>
      <trkpt lat="45.37628" lon="5.81381">
        <ele>1929</ele>
        <time>2022-01-13T13:22:19Z</time>
      </trkpt>
      <trkpt lat="45.37655" lon="5.81395">
        <ele>1919</ele>
        <time>2022-01-13T13:22:32Z</time>
      </trkpt>
      <trkpt lat="45.37657" lon="5.81401">
        <ele>1917</ele>
        <time>2022-01-13T13:22:35Z</time>
      </trkpt>
      <trkpt lat="45.37651" lon="5.81404">
        <ele>1915</ele>
        <time>2022-01-13T13:22:37Z</time>
      </trkpt>
      <trkpt lat="45.37647" lon="5.81407">
        <ele>1913</ele>
        <time>2022-01-13T13:22:39Z</time>
      </trkpt>
      <trkpt lat="45.3765" lon="5.81413">
        <ele>1911</ele>
        <time>2022-01-13T13:22:41Z</time>
      </trkpt>
      <trkpt lat="45.37674" lon="5.81428">
        <ele>1902</ele>
        <time>2022-01-13T13:23:07Z</time>
      </trkpt>
      <trkpt lat="45.37688" lon="5.8144">
        <ele>1901</ele>
        <time>2022-01-13T13:23:12Z</time>
      </trkpt>
      <trkpt lat="45.37708" lon="5.81468">
        <ele>1895</ele>
        <time>2022-01-13T13:23:29Z</time>
      </trkpt>
      <trkpt lat="45.37729" lon="5.81474">
        <ele>1890</ele>
        <time>2022-01-13T13:23:37Z</time>
      </trkpt>
      <trkpt lat="45.37784" lon="5.81465">
        <ele>1881</ele>
        <time>2022-01-13T13:23:55Z</time>
      </trkpt>
      <trkpt lat="45.37806" lon="5.81467">
        <ele>1877</ele>
        <time>2022-01-13T13:24:03Z</time>
      </trkpt>
      <trkpt lat="45.37853" lon="5.81463">
        <ele>1867</ele>
        <time>2022-01-13T13:24:17Z</time>
      </trkpt>
      <trkpt lat="45.37858" lon="5.81469">
        <ele>1865</ele>
        <time>2022-01-13T13:24:19Z</time>
      </trkpt>
      <trkpt lat="45.37865" lon="5.81475">
        <ele>1863</ele>
        <time>2022-01-13T13:24:21Z</time>
      </trkpt>
      <trkpt lat="45.37876" lon="5.81473">
        <ele>1860</ele>
        <time>2022-01-13T13:24:37Z</time>
      </trkpt>
      <trkpt lat="45.37882" lon="5.81469">
        <ele>1860</ele>
        <time>2022-01-13T13:24:49Z</time>
      </trkpt>
      <trkpt lat="45.3789" lon="5.81468">
        <ele>1860</ele>
        <time>2022-01-13T13:24:53Z</time>
      </trkpt>
      <trkpt lat="45.37896" lon="5.81471">
        <ele>1860</ele>
        <time>2022-01-13T13:25:02Z</time>
      </trkpt>
      <trkpt lat="45.37908" lon="5.81476">
        <ele>1861</ele>
        <time>2022-01-13T13:25:23Z</time>
      </trkpt>
      <trkpt lat="45.37922" lon="5.81484">
        <ele>1860</ele>
        <time>2022-01-13T13:25:34Z</time>
      </trkpt>
      <trkpt lat="45.3793" lon="5.81488">
        <ele>1861</ele>
        <time>2022-01-13T13:26:34Z</time>
      </trkpt>
      <trkpt lat="45.37935" lon="5.81491">
        <ele>1861</ele>
        <time>2022-01-13T13:26:36Z</time>
      </trkpt>
      <trkpt lat="45.3794" lon="5.81494">
        <ele>1860</ele>
        <time>2022-01-13T13:26:38Z</time>
      </trkpt>
      <trkpt lat="45.37944" lon="5.81499">
        <ele>1859</ele>
        <time>2022-01-13T13:26:40Z</time>
      </trkpt>
      <trkpt lat="45.37961" lon="5.8151">
        <ele>1857</ele>
        <time>2022-01-13T13:26:47Z</time>
      </trkpt>
      <trkpt lat="45.37967" lon="5.81516">
        <ele>1854</ele>
        <time>2022-01-13T13:26:57Z</time>
      </trkpt>
      <trkpt lat="45.37976" lon="5.81517">
        <ele>1853</ele>
        <time>2022-01-13T13:27:13Z</time>
      </trkpt>
      <trkpt lat="45.37982" lon="5.8151">
        <ele>1852</ele>
        <time>2022-01-13T13:27:15Z</time>
      </trkpt>
      <trkpt lat="45.37989" lon="5.81506">
        <ele>1851</ele>
        <time>2022-01-13T13:27:17Z</time>
      </trkpt>
      <trkpt lat="45.3803" lon="5.81521">
        <ele>1844</ele>
        <time>2022-01-13T13:27:27Z</time>
      </trkpt>
      <trkpt lat="45.38052" lon="5.81538">
        <ele>1841</ele>
        <time>2022-01-13T13:27:42Z</time>
      </trkpt>
      <trkpt lat="45.38085" lon="5.81548">
        <ele>1836</ele>
        <time>2022-01-13T13:27:50Z</time>
      </trkpt>
      <trkpt lat="45.38113" lon="5.81548">
        <ele>1833</ele>
        <time>2022-01-13T13:27:56Z</time>
      </trkpt>
      <trkpt lat="45.38132" lon="5.81554">
        <ele>1830</ele>
        <time>2022-01-13T13:28:02Z</time>
      </trkpt>
      <trkpt lat="45.38136" lon="5.81557">
        <ele>1829</ele>
        <time>2022-01-13T13:28:06Z</time>
      </trkpt>
      <trkpt lat="45.38143" lon="5.81565">
        <ele>1828</ele>
        <time>2022-01-13T13:29:16Z</time>
      </trkpt>
      <trkpt lat="45.38155" lon="5.81575">
        <ele>1827</ele>
        <time>2022-01-13T13:29:20Z</time>
      </trkpt>
      <trkpt lat="45.3816" lon="5.81569">
        <ele>1826</ele>
        <time>2022-01-13T13:29:22Z</time>
      </trkpt>
      <trkpt lat="45.38161" lon="5.81563">
        <ele>1825</ele>
        <time>2022-01-13T13:29:23Z</time>
      </trkpt>
      <trkpt lat="45.38163" lon="5.81556">
        <ele>1823</ele>
        <time>2022-01-13T13:29:25Z</time>
      </trkpt>
      <trkpt lat="45.38179" lon="5.81564">
        <ele>1816</ele>
        <time>2022-01-13T13:29:29Z</time>
      </trkpt>
      <trkpt lat="45.38186" lon="5.81568">
        <ele>1813</ele>
        <time>2022-01-13T13:29:31Z</time>
      </trkpt>
      <trkpt lat="45.38193" lon="5.81565">
        <ele>1810</ele>
        <time>2022-01-13T13:29:33Z</time>
      </trkpt>
      <trkpt lat="45.38223" lon="5.81585">
        <ele>1796</ele>
        <time>2022-01-13T13:31:06Z</time>
      </trkpt>
      <trkpt lat="45.38228" lon="5.8159">
        <ele>1796</ele>
        <time>2022-01-13T13:31:08Z</time>
      </trkpt>
      <trkpt lat="45.38237" lon="5.816">
        <ele>1794</ele>
        <time>2022-01-13T13:31:12Z</time>
      </trkpt>
      <trkpt lat="45.38242" lon="5.81603">
        <ele>1792</ele>
        <time>2022-01-13T13:31:18Z</time>
      </trkpt>
      <trkpt lat="45.38248" lon="5.81607">
        <ele>1791</ele>
        <time>2022-01-13T13:31:20Z</time>
      </trkpt>
      <trkpt lat="45.38255" lon="5.81606">
        <ele>1790</ele>
        <time>2022-01-13T13:31:22Z</time>
      </trkpt>
      <trkpt lat="45.3826" lon="5.81599">
        <ele>1788</ele>
        <time>2022-01-13T13:31:24Z</time>
      </trkpt>
      <trkpt lat="45.38268" lon="5.81593">
        <ele>1785</ele>
        <time>2022-01-13T13:31:26Z</time>
      </trkpt>
      <trkpt lat="45.38276" lon="5.81593">
        <ele>1781</ele>
        <time>2022-01-13T13:31:28Z</time>
      </trkpt>
      <trkpt lat="45.38281" lon="5.816">
        <ele>1778</ele>
        <time>2022-01-13T13:31:30Z</time>
      </trkpt>
      <trkpt lat="45.38277" lon="5.81606">
        <ele>1774</ele>
        <time>2022-01-13T13:31:36Z</time>
      </trkpt>
      <trkpt lat="45.38284" lon="5.8161">
        <ele>1774</ele>
        <time>2022-01-13T13:32:01Z</time>
      </trkpt>
      <trkpt lat="45.38289" lon="5.81607">
        <ele>1773</ele>
        <time>2022-01-13T13:32:03Z</time>
      </trkpt>
      <trkpt lat="45.38295" lon="5.81611">
        <ele>1771</ele>
        <time>2022-01-13T13:32:05Z</time>
      </trkpt>
      <trkpt lat="45.38301" lon="5.81611">
        <ele>1768</ele>
        <time>2022-01-13T13:32:07Z</time>
      </trkpt>
      <trkpt lat="45.38307" lon="5.8161">
        <ele>1765</ele>
        <time>2022-01-13T13:32:09Z</time>
      </trkpt>
      <trkpt lat="45.38313" lon="5.81606">
        <ele>1762</ele>
        <time>2022-01-13T13:32:11Z</time>
      </trkpt>
      <trkpt lat="45.38316" lon="5.81601">
        <ele>1759</ele>
        <time>2022-01-13T13:32:13Z</time>
      </trkpt>
      <trkpt lat="45.3832" lon="5.81598">
        <ele>1756</ele>
        <time>2022-01-13T13:32:15Z</time>
      </trkpt>
      <trkpt lat="45.38321" lon="5.81592">
        <ele>1754</ele>
        <time>2022-01-13T13:32:17Z</time>
      </trkpt>
      <trkpt lat="45.38324" lon="5.81586">
        <ele>1742</ele>
        <time>2022-01-13T13:32:34Z</time>
      </trkpt>
      <trkpt lat="45.3833" lon="5.81587">
        <ele>1740</ele>
        <time>2022-01-13T13:32:38Z</time>
      </trkpt>
      <trkpt lat="45.38336" lon="5.8159">
        <ele>1738</ele>
        <time>2022-01-13T13:32:40Z</time>
      </trkpt>
      <trkpt lat="45.3834" lon="5.81597">
        <ele>1731</ele>
        <time>2022-01-13T13:33:49Z</time>
      </trkpt>
      <trkpt lat="45.38344" lon="5.81601">
        <ele>1730</ele>
        <time>2022-01-13T13:33:53Z</time>
      </trkpt>
      <trkpt lat="45.38349" lon="5.81599">
        <ele>1729</ele>
        <time>2022-01-13T13:33:56Z</time>
      </trkpt>
      <trkpt lat="45.38352" lon="5.81591">
        <ele>1727</ele>
        <time>2022-01-13T13:33:59Z</time>
      </trkpt>
      <trkpt lat="45.38358" lon="5.81593">
        <ele>1722</ele>
        <time>2022-01-13T13:34:05Z</time>
      </trkpt>
      <trkpt lat="45.38363" lon="5.81597">
        <ele>1719</ele>
        <time>2022-01-13T13:34:47Z</time>
      </trkpt>
      <trkpt lat="45.38367" lon="5.816">
        <ele>1719</ele>
        <time>2022-01-13T13:34:48Z</time>
      </trkpt>
      <trkpt lat="45.38378" lon="5.81606">
        <ele>1717</ele>
        <time>2022-01-13T13:34:51Z</time>
      </trkpt>
      <trkpt lat="45.38386" lon="5.81606">
        <ele>1715</ele>
        <time>2022-01-13T13:34:53Z</time>
      </trkpt>
      <trkpt lat="45.38389" lon="5.81597">
        <ele>1714</ele>
        <time>2022-01-13T13:34:55Z</time>
      </trkpt>
      <trkpt lat="45.38384" lon="5.81576">
        <ele>1706</ele>
        <time>2022-01-13T13:35:01Z</time>
      </trkpt>
      <trkpt lat="45.38389" lon="5.81572">
        <ele>1704</ele>
        <time>2022-01-13T13:35:04Z</time>
      </trkpt>
      <trkpt lat="45.3838" lon="5.81559">
        <ele>1697</ele>
        <time>2022-01-13T13:35:14Z</time>
      </trkpt>
      <trkpt lat="45.38384" lon="5.8155">
        <ele>1696</ele>
        <time>2022-01-13T13:35:16Z</time>
      </trkpt>
      <trkpt lat="45.38384" lon="5.81544">
        <ele>1695</ele>
        <time>2022-01-13T13:35:17Z</time>
      </trkpt>
      <trkpt lat="45.38367" lon="5.81521">
        <ele>1688</ele>
        <time>2022-01-13T13:35:23Z</time>
      </trkpt>
      <trkpt lat="45.38361" lon="5.81513">
        <ele>1686</ele>
        <time>2022-01-13T13:35:25Z</time>
      </trkpt>
      <trkpt lat="45.38368" lon="5.81483">
        <ele>1680</ele>
        <time>2022-01-13T13:35:30Z</time>
      </trkpt>
      <trkpt lat="45.38376" lon="5.81467">
        <ele>1676</ele>
        <time>2022-01-13T13:35:33Z</time>
      </trkpt>
      <trkpt lat="45.3838" lon="5.81467">
        <ele>1675</ele>
        <time>2022-01-13T13:35:33Z</time>
      </trkpt>
      <trkpt lat="45.38389" lon="5.81466">
        <ele>1672</ele>
        <time>2022-01-13T13:35:35Z</time>
      </trkpt>
      <trkpt lat="45.38395" lon="5.81449">
        <ele>1667</ele>
        <time>2022-01-13T13:38:38Z</time>
      </trkpt>
      <trkpt lat="45.3841" lon="5.81441">
        <ele>1664</ele>
        <time>2022-01-13T13:38:44Z</time>
      </trkpt>
      <trkpt lat="45.38415" lon="5.81434">
        <ele>1661</ele>
        <time>2022-01-13T13:38:46Z</time>
      </trkpt>
      <trkpt lat="45.38416" lon="5.81423">
        <ele>1658</ele>
        <time>2022-01-13T13:38:48Z</time>
      </trkpt>
      <trkpt lat="45.3841" lon="5.81403">
        <ele>1650</ele>
        <time>2022-01-13T13:38:52Z</time>
      </trkpt>
      <trkpt lat="45.38403" lon="5.81399">
        <ele>1645</ele>
        <time>2022-01-13T13:39:04Z</time>
      </trkpt>
      <trkpt lat="45.38379" lon="5.81356">
        <ele>1641</ele>
        <time>2022-01-13T13:39:12Z</time>
      </trkpt>
      <trkpt lat="45.38372" lon="5.81352">
        <ele>1640</ele>
        <time>2022-01-13T13:39:45Z</time>
      </trkpt>
      <trkpt lat="45.38365" lon="5.81349">
        <ele>1640</ele>
        <time>2022-01-13T13:43:13Z</time>
      </trkpt>
      <trkpt lat="45.3836" lon="5.81347">
        <ele>1640</ele>
        <time>2022-01-13T13:43:15Z</time>
      </trkpt>
      <trkpt lat="45.38323" lon="5.81324">
        <ele>1637</ele>
        <time>2022-01-13T13:43:27Z</time>
      </trkpt>
      <trkpt lat="45.38258" lon="5.81283">
        <ele>1633</ele>
        <time>2022-01-13T13:43:47Z</time>
      </trkpt>
      <trkpt lat="45.38247" lon="5.81277">
        <ele>1632</ele>
        <time>2022-01-13T13:43:54Z</time>
      </trkpt>
      <trkpt lat="45.38243" lon="5.81273">
        <ele>1632</ele>
        <time>2022-01-13T13:43:57Z</time>
      </trkpt>
      <trkpt lat="45.38241" lon="5.81265">
        <ele>1632</ele>
        <time>2022-01-13T13:45:44Z</time>
      </trkpt>
      <trkpt lat="45.3824" lon="5.81236">
        <ele>1631</ele>
        <time>2022-01-13T13:45:56Z</time>
      </trkpt>
      <trkpt lat="45.38237" lon="5.81229">
        <ele>1629</ele>
        <time>2022-01-13T13:45:58Z</time>
      </trkpt>
      <trkpt lat="45.38225" lon="5.81219">
        <ele>1627</ele>
        <time>2022-01-13T13:46:00Z</time>
      </trkpt>
      <trkpt lat="45.38222" lon="5.81215">
        <ele>1626</ele>
        <time>2022-01-13T13:46:01Z</time>
      </trkpt>
      <trkpt lat="45.38208" lon="5.81204">
        <ele>1621</ele>
        <time>2022-01-13T13:46:05Z</time>
      </trkpt>
      <trkpt lat="45.38203" lon="5.81197">
        <ele>1620</ele>
        <time>2022-01-13T13:46:07Z</time>
      </trkpt>
      <trkpt lat="45.38201" lon="5.81185">
        <ele>1618</ele>
        <time>2022-01-13T13:46:09Z</time>
      </trkpt>
      <trkpt lat="45.38194" lon="5.8118">
        <ele>1617</ele>
        <time>2022-01-13T13:46:11Z</time>
      </trkpt>
      <trkpt lat="45.38197" lon="5.81174">
        <ele>1613</ele>
        <time>2022-01-13T13:46:38Z</time>
      </trkpt>
      <trkpt lat="45.38193" lon="5.81166">
        <ele>1613</ele>
        <time>2022-01-13T13:46:43Z</time>
      </trkpt>
      <trkpt lat="45.38189" lon="5.81161">
        <ele>1612</ele>
        <time>2022-01-13T13:46:45Z</time>
      </trkpt>
      <trkpt lat="45.38187" lon="5.81153">
        <ele>1611</ele>
        <time>2022-01-13T13:46:47Z</time>
      </trkpt>
      <trkpt lat="45.38183" lon="5.81148">
        <ele>1608</ele>
        <time>2022-01-13T13:46:49Z</time>
      </trkpt>
      <trkpt lat="45.38182" lon="5.81143">
        <ele>1601</ele>
        <time>2022-01-13T13:47:01Z</time>
      </trkpt>
      <trkpt lat="45.38188" lon="5.81141">
        <ele>1600</ele>
        <time>2022-01-13T13:47:04Z</time>
      </trkpt>
      <trkpt lat="45.38193" lon="5.81137">
        <ele>1599</ele>
        <time>2022-01-13T13:47:07Z</time>
      </trkpt>
      <trkpt lat="45.38197" lon="5.81132">
        <ele>1597</ele>
        <time>2022-01-13T13:47:39Z</time>
      </trkpt>
      <trkpt lat="45.38197" lon="5.81123">
        <ele>1597</ele>
        <time>2022-01-13T13:47:42Z</time>
      </trkpt>
      <trkpt lat="45.38192" lon="5.81121">
        <ele>1595</ele>
        <time>2022-01-13T13:47:44Z</time>
      </trkpt>
      <trkpt lat="45.38186" lon="5.81122">
        <ele>1594</ele>
        <time>2022-01-13T13:47:46Z</time>
      </trkpt>
      <trkpt lat="45.38185" lon="5.81114">
        <ele>1590</ele>
        <time>2022-01-13T13:47:49Z</time>
      </trkpt>
      <trkpt lat="45.38189" lon="5.8111">
        <ele>1586</ele>
        <time>2022-01-13T13:47:58Z</time>
      </trkpt>
      <trkpt lat="45.3819" lon="5.81103">
        <ele>1585</ele>
        <time>2022-01-13T13:48:04Z</time>
      </trkpt>
      <trkpt lat="45.3818" lon="5.81099">
        <ele>1581</ele>
        <time>2022-01-13T13:48:11Z</time>
      </trkpt>
      <trkpt lat="45.38185" lon="5.81091">
        <ele>1576</ele>
        <time>2022-01-13T13:48:43Z</time>
      </trkpt>
      <trkpt lat="45.38189" lon="5.81089">
        <ele>1575</ele>
        <time>2022-01-13T13:48:45Z</time>
      </trkpt>
      <trkpt lat="45.38193" lon="5.81083">
        <ele>1574</ele>
        <time>2022-01-13T13:48:47Z</time>
      </trkpt>
      <trkpt lat="45.38193" lon="5.81075">
        <ele>1573</ele>
        <time>2022-01-13T13:48:49Z</time>
      </trkpt>
      <trkpt lat="45.38185" lon="5.81046">
        <ele>1564</ele>
        <time>2022-01-13T13:48:55Z</time>
      </trkpt>
      <trkpt lat="45.38183" lon="5.81023">
        <ele>1557</ele>
        <time>2022-01-13T13:48:59Z</time>
      </trkpt>
      <trkpt lat="45.38186" lon="5.81017">
        <ele>1553</ele>
        <time>2022-01-13T13:49:01Z</time>
      </trkpt>
      <trkpt lat="45.3819" lon="5.81029">
        <ele>1548</ele>
        <time>2022-01-13T13:49:28Z</time>
      </trkpt>
      <trkpt lat="45.38189" lon="5.81042">
        <ele>1549</ele>
        <time>2022-01-13T13:49:52Z</time>
      </trkpt>
      <trkpt lat="45.38196" lon="5.8104">
        <ele>1550</ele>
        <time>2022-01-13T13:51:39Z</time>
      </trkpt>
      <trkpt lat="45.38198" lon="5.8103">
        <ele>1549</ele>
        <time>2022-01-13T13:51:43Z</time>
      </trkpt>
      <trkpt lat="45.38189" lon="5.8097">
        <ele>1534</ele>
        <time>2022-01-13T13:51:52Z</time>
      </trkpt>
      <trkpt lat="45.38194" lon="5.80963">
        <ele>1524</ele>
        <time>2022-01-13T13:52:49Z</time>
      </trkpt>
      <trkpt lat="45.38205" lon="5.80948">
        <ele>1520</ele>
        <time>2022-01-13T13:52:52Z</time>
      </trkpt>
      <trkpt lat="45.38215" lon="5.80943">
        <ele>1518</ele>
        <time>2022-01-13T13:52:53Z</time>
      </trkpt>
      <trkpt lat="45.38215" lon="5.80937">
        <ele>1514</ele>
        <time>2022-01-13T13:52:55Z</time>
      </trkpt>
      <trkpt lat="45.38215" lon="5.80928">
        <ele>1511</ele>
        <time>2022-01-13T13:52:58Z</time>
      </trkpt>
      <trkpt lat="45.38213" lon="5.80921">
        <ele>1508</ele>
        <time>2022-01-13T13:53:00Z</time>
      </trkpt>
      <trkpt lat="45.38207" lon="5.80908">
        <ele>1505</ele>
        <time>2022-01-13T13:53:02Z</time>
      </trkpt>
      <trkpt lat="45.38202" lon="5.80911">
        <ele>1498</ele>
        <time>2022-01-13T13:53:08Z</time>
      </trkpt>
      <trkpt lat="45.38191" lon="5.80918">
        <ele>1498</ele>
        <time>2022-01-13T13:54:24Z</time>
      </trkpt>
      <trkpt lat="45.38186" lon="5.80903">
        <ele>1496</ele>
        <time>2022-01-13T13:54:28Z</time>
      </trkpt>
      <trkpt lat="45.38178" lon="5.80893">
        <ele>1491</ele>
        <time>2022-01-13T13:54:34Z</time>
      </trkpt>
      <trkpt lat="45.38171" lon="5.80885">
        <ele>1487</ele>
        <time>2022-01-13T13:55:19Z</time>
      </trkpt>
      <trkpt lat="45.38165" lon="5.80871">
        <ele>1487</ele>
        <time>2022-01-13T13:55:39Z</time>
      </trkpt>
      <trkpt lat="45.38167" lon="5.80856">
        <ele>1485</ele>
        <time>2022-01-13T13:55:42Z</time>
      </trkpt>
      <trkpt lat="45.38166" lon="5.80843">
        <ele>1482</ele>
        <time>2022-01-13T13:55:45Z</time>
      </trkpt>
      <trkpt lat="45.38176" lon="5.80834">
        <ele>1477</ele>
        <time>2022-01-13T13:55:50Z</time>
      </trkpt>
      <trkpt lat="45.38183" lon="5.80821">
        <ele>1475</ele>
        <time>2022-01-13T13:55:53Z</time>
      </trkpt>
      <trkpt lat="45.38181" lon="5.8079">
        <ele>1472</ele>
        <time>2022-01-13T13:56:00Z</time>
      </trkpt>
      <trkpt lat="45.38184" lon="5.80754">
        <ele>1469</ele>
        <time>2022-01-13T13:56:08Z</time>
      </trkpt>
      <trkpt lat="45.38181" lon="5.80742">
        <ele>1468</ele>
        <time>2022-01-13T13:56:10Z</time>
      </trkpt>
      <trkpt lat="45.38168" lon="5.80723">
        <ele>1463</ele>
        <time>2022-01-13T13:56:15Z</time>
      </trkpt>
      <trkpt lat="45.38148" lon="5.8068">
        <ele>1453</ele>
        <time>2022-01-13T13:56:25Z</time>
      </trkpt>
      <trkpt lat="45.3814" lon="5.80669">
        <ele>1451</ele>
        <time>2022-01-13T13:56:28Z</time>
      </trkpt>
      <trkpt lat="45.38136" lon="5.80689">
        <ele>1448</ele>
        <time>2022-01-13T13:56:44Z</time>
      </trkpt>
      <trkpt lat="45.38136" lon="5.80674">
        <ele>1448</ele>
        <time>2022-01-13T13:58:33Z</time>
      </trkpt>
      <trkpt lat="45.38134" lon="5.80661">
        <ele>1447</ele>
        <time>2022-01-13T13:58:36Z</time>
      </trkpt>
      <trkpt lat="45.3813" lon="5.80631">
        <ele>1442</ele>
        <time>2022-01-13T13:58:44Z</time>
      </trkpt>
      <trkpt lat="45.38135" lon="5.80615">
        <ele>1438</ele>
        <time>2022-01-13T13:58:48Z</time>
      </trkpt>
      <trkpt lat="45.38134" lon="5.80585">
        <ele>1434</ele>
        <time>2022-01-13T13:58:52Z</time>
      </trkpt>
      <trkpt lat="45.38116" lon="5.80596">
        <ele>1425</ele>
        <time>2022-01-13T13:59:32Z</time>
      </trkpt>
      <trkpt lat="45.3811" lon="5.806">
        <ele>1421</ele>
        <time>2022-01-13T13:59:42Z</time>
      </trkpt>
      <trkpt lat="45.381" lon="5.8058">
        <ele>1413</ele>
        <time>2022-01-13T14:00:14Z</time>
      </trkpt>
      <trkpt lat="45.38071" lon="5.80576">
        <ele>1406</ele>
        <time>2022-01-13T14:00:25Z</time>
      </trkpt>
      <trkpt lat="45.38066" lon="5.8057">
        <ele>1404</ele>
        <time>2022-01-13T14:00:28Z</time>
      </trkpt>
      <trkpt lat="45.38069" lon="5.8056">
        <ele>1402</ele>
        <time>2022-01-13T14:00:30Z</time>
      </trkpt>
      <trkpt lat="45.38075" lon="5.80561">
        <ele>1399</ele>
        <time>2022-01-13T14:00:40Z</time>
      </trkpt>
      <trkpt lat="45.38084" lon="5.80556">
        <ele>1399</ele>
        <time>2022-01-13T14:00:57Z</time>
      </trkpt>
      <trkpt lat="45.3809" lon="5.8055">
        <ele>1399</ele>
        <time>2022-01-13T14:00:59Z</time>
      </trkpt>
      <trkpt lat="45.38093" lon="5.80544">
        <ele>1398</ele>
        <time>2022-01-13T14:01:01Z</time>
      </trkpt>
      <trkpt lat="45.38095" lon="5.80538">
        <ele>1397</ele>
        <time>2022-01-13T14:01:03Z</time>
      </trkpt>
      <trkpt lat="45.38105" lon="5.80545">
        <ele>1393</ele>
        <time>2022-01-13T14:01:21Z</time>
      </trkpt>
      <trkpt lat="45.38116" lon="5.80481">
        <ele>1388</ele>
        <time>2022-01-13T14:01:33Z</time>
      </trkpt>
      <trkpt lat="45.3813" lon="5.80454">
        <ele>1387</ele>
        <time>2022-01-13T14:01:40Z</time>
      </trkpt>
      <trkpt lat="45.38152" lon="5.80444">
        <ele>1381</ele>
        <time>2022-01-13T14:01:51Z</time>
      </trkpt>
      <trkpt lat="45.38158" lon="5.80446">
        <ele>1380</ele>
        <time>2022-01-13T14:01:54Z</time>
      </trkpt>
      <trkpt lat="45.38163" lon="5.80444">
        <ele>1379</ele>
        <time>2022-01-13T14:01:55Z</time>
      </trkpt>
      <trkpt lat="45.38172" lon="5.80449">
        <ele>1377</ele>
        <time>2022-01-13T14:01:58Z</time>
      </trkpt>
      <trkpt lat="45.3818" lon="5.80441">
        <ele>1372</ele>
        <time>2022-01-13T14:03:00Z</time>
      </trkpt>
      <trkpt lat="45.38183" lon="5.80435">
        <ele>1372</ele>
        <time>2022-01-13T14:03:08Z</time>
      </trkpt>
      <trkpt lat="45.38189" lon="5.80418">
        <ele>1370</ele>
        <time>2022-01-13T14:03:12Z</time>
      </trkpt>
      <trkpt lat="45.38191" lon="5.80396">
        <ele>1368</ele>
        <time>2022-01-13T14:03:15Z</time>
      </trkpt>
      <trkpt lat="45.38195" lon="5.80377">
        <ele>1366</ele>
        <time>2022-01-13T14:03:19Z</time>
      </trkpt>
      <trkpt lat="45.38206" lon="5.80354">
        <ele>1361</ele>
        <time>2022-01-13T14:03:24Z</time>
      </trkpt>
      <trkpt lat="45.38215" lon="5.80329">
        <ele>1356</ele>
        <time>2022-01-13T14:03:32Z</time>
      </trkpt>
      <trkpt lat="45.38209" lon="5.80291">
        <ele>1352</ele>
        <time>2022-01-13T14:03:38Z</time>
      </trkpt>
      <trkpt lat="45.38216" lon="5.80253">
        <ele>1345</ele>
        <time>2022-01-13T14:03:44Z</time>
      </trkpt>
      <trkpt lat="45.38224" lon="5.80243">
        <ele>1344</ele>
        <time>2022-01-13T14:03:46Z</time>
      </trkpt>
      <trkpt lat="45.38229" lon="5.80235">
        <ele>1342</ele>
        <time>2022-01-13T14:03:49Z</time>
      </trkpt>
      <trkpt lat="45.38226" lon="5.80214">
        <ele>1339</ele>
        <time>2022-01-13T14:03:53Z</time>
      </trkpt>
      <trkpt lat="45.38221" lon="5.80213">
        <ele>1339</ele>
        <time>2022-01-13T14:06:25Z</time>
      </trkpt>
      <trkpt lat="45.38215" lon="5.80217">
        <ele>1338</ele>
        <time>2022-01-13T14:06:37Z</time>
      </trkpt>
      <trkpt lat="45.38202" lon="5.80248">
        <ele>1336</ele>
        <time>2022-01-13T14:06:44Z</time>
      </trkpt>
      <trkpt lat="45.38198" lon="5.80254">
        <ele>1335</ele>
        <time>2022-01-13T14:06:47Z</time>
      </trkpt>
      <trkpt lat="45.38186" lon="5.80263">
        <ele>1334</ele>
        <time>2022-01-13T14:06:51Z</time>
      </trkpt>
      <trkpt lat="45.38168" lon="5.80282">
        <ele>1329</ele>
        <time>2022-01-13T14:06:58Z</time>
      </trkpt>
      <trkpt lat="45.38163" lon="5.80286">
        <ele>1329</ele>
        <time>2022-01-13T14:06:59Z</time>
      </trkpt>
      <trkpt lat="45.3816" lon="5.80291">
        <ele>1328</ele>
        <time>2022-01-13T14:07:00Z</time>
      </trkpt>
      <trkpt lat="45.38153" lon="5.80294">
        <ele>1326</ele>
        <time>2022-01-13T14:07:02Z</time>
      </trkpt>
      <trkpt lat="45.38148" lon="5.803">
        <ele>1324</ele>
        <time>2022-01-13T14:07:04Z</time>
      </trkpt>
      <trkpt lat="45.38143" lon="5.80303">
        <ele>1323</ele>
        <time>2022-01-13T14:07:06Z</time>
      </trkpt>
      <trkpt lat="45.38137" lon="5.80311">
        <ele>1321</ele>
        <time>2022-01-13T14:07:08Z</time>
      </trkpt>
      <trkpt lat="45.38129" lon="5.80314">
        <ele>1320</ele>
        <time>2022-01-13T14:07:10Z</time>
      </trkpt>
      <trkpt lat="45.38117" lon="5.80306">
        <ele>1316</ele>
        <time>2022-01-13T14:07:14Z</time>
      </trkpt>
      <trkpt lat="45.38113" lon="5.803">
        <ele>1312</ele>
        <time>2022-01-13T14:07:19Z</time>
      </trkpt>
      <trkpt lat="45.38115" lon="5.80292">
        <ele>1311</ele>
        <time>2022-01-13T14:07:22Z</time>
      </trkpt>
      <trkpt lat="45.38117" lon="5.80282">
        <ele>1310</ele>
        <time>2022-01-13T14:07:24Z</time>
      </trkpt>
      <trkpt lat="45.38115" lon="5.80275">
        <ele>1309</ele>
        <time>2022-01-13T14:07:26Z</time>
      </trkpt>
      <trkpt lat="45.3811" lon="5.80269">
        <ele>1307</ele>
        <time>2022-01-13T14:07:28Z</time>
      </trkpt>
      <trkpt lat="45.38103" lon="5.80255">
        <ele>1304</ele>
        <time>2022-01-13T14:07:31Z</time>
      </trkpt>
      <trkpt lat="45.381" lon="5.80245">
        <ele>1302</ele>
        <time>2022-01-13T14:07:33Z</time>
      </trkpt>
      <trkpt lat="45.38095" lon="5.80237">
        <ele>1301</ele>
        <time>2022-01-13T14:07:35Z</time>
      </trkpt>
      <trkpt lat="45.38076" lon="5.80233">
        <ele>1295</ele>
        <time>2022-01-13T14:07:43Z</time>
      </trkpt>
      <trkpt lat="45.38074" lon="5.80219">
        <ele>1293</ele>
        <time>2022-01-13T14:07:47Z</time>
      </trkpt>
      <trkpt lat="45.38068" lon="5.80212">
        <ele>1290</ele>
        <time>2022-01-13T14:08:10Z</time>
      </trkpt>
      <trkpt lat="45.38061" lon="5.80197">
        <ele>1289</ele>
        <time>2022-01-13T14:08:13Z</time>
      </trkpt>
      <trkpt lat="45.38059" lon="5.8019">
        <ele>1288</ele>
        <time>2022-01-13T14:08:14Z</time>
      </trkpt>
      <trkpt lat="45.3806" lon="5.80179">
        <ele>1287</ele>
        <time>2022-01-13T14:08:15Z</time>
      </trkpt>
      <trkpt lat="45.38057" lon="5.80173">
        <ele>1286</ele>
        <time>2022-01-13T14:08:16Z</time>
      </trkpt>
      <trkpt lat="45.38046" lon="5.80165">
        <ele>1284</ele>
        <time>2022-01-13T14:08:18Z</time>
      </trkpt>
      <trkpt lat="45.38033" lon="5.80152">
        <ele>1281</ele>
        <time>2022-01-13T14:08:21Z</time>
      </trkpt>
      <trkpt lat="45.38019" lon="5.8014">
        <ele>1279</ele>
        <time>2022-01-13T14:08:24Z</time>
      </trkpt>
      <trkpt lat="45.38015" lon="5.80138">
        <ele>1278</ele>
        <time>2022-01-13T14:08:25Z</time>
      </trkpt>
      <trkpt lat="45.38014" lon="5.8013">
        <ele>1278</ele>
        <time>2022-01-13T14:08:27Z</time>
      </trkpt>
      <trkpt lat="45.37999" lon="5.80116">
        <ele>1275</ele>
        <time>2022-01-13T14:08:31Z</time>
      </trkpt>
      <trkpt lat="45.37995" lon="5.80106">
        <ele>1274</ele>
        <time>2022-01-13T14:08:33Z</time>
      </trkpt>
      <trkpt lat="45.37989" lon="5.80101">
        <ele>1272</ele>
        <time>2022-01-13T14:08:35Z</time>
      </trkpt>
      <trkpt lat="45.3797" lon="5.80069">
        <ele>1268</ele>
        <time>2022-01-13T14:08:43Z</time>
      </trkpt>
      <trkpt lat="45.37962" lon="5.80055">
        <ele>1265</ele>
        <time>2022-01-13T14:09:45Z</time>
      </trkpt>
      <trkpt lat="45.37954" lon="5.8005">
        <ele>1263</ele>
        <time>2022-01-13T14:09:48Z</time>
      </trkpt>
      <trkpt lat="45.37943" lon="5.8004">
        <ele>1261</ele>
        <time>2022-01-13T14:09:51Z</time>
      </trkpt>
      <trkpt lat="45.37923" lon="5.8003">
        <ele>1258</ele>
        <time>2022-01-13T14:09:56Z</time>
      </trkpt>
      <trkpt lat="45.37915" lon="5.80015">
        <ele>1257</ele>
        <time>2022-01-13T14:09:59Z</time>
      </trkpt>
      <trkpt lat="45.37886" lon="5.79997">
        <ele>1250</ele>
        <time>2022-01-13T14:10:09Z</time>
      </trkpt>
      <trkpt lat="45.37858" lon="5.79966">
        <ele>1244</ele>
        <time>2022-01-13T14:10:18Z</time>
      </trkpt>
      <trkpt lat="45.37831" lon="5.79954">
        <ele>1237</ele>
        <time>2022-01-13T14:10:50Z</time>
      </trkpt>
      <trkpt lat="45.37753" lon="5.79918">
        <ele>1225</ele>
        <time>2022-01-13T14:11:06Z</time>
      </trkpt>
      <trkpt lat="45.3768" lon="5.79864">
        <ele>1210</ele>
        <time>2022-01-13T14:11:22Z</time>
      </trkpt>
      <trkpt lat="45.37668" lon="5.79863">
        <ele>1208</ele>
        <time>2022-01-13T14:11:24Z</time>
      </trkpt>
      <trkpt lat="45.37648" lon="5.79855">
        <ele>1205</ele>
        <time>2022-01-13T14:11:27Z</time>
      </trkpt>
      <trkpt lat="45.37632" lon="5.79831">
        <ele>1200</ele>
        <time>2022-01-13T14:11:32Z</time>
      </trkpt>
      <trkpt lat="45.37614" lon="5.79792">
        <ele>1194</ele>
        <time>2022-01-13T14:11:39Z</time>
      </trkpt>
      <trkpt lat="45.37613" lon="5.79779">
        <ele>1192</ele>
        <time>2022-01-13T14:11:41Z</time>
      </trkpt>
      <trkpt lat="45.37621" lon="5.79768">
        <ele>1188</ele>
        <time>2022-01-13T14:11:45Z</time>
      </trkpt>
      <trkpt lat="45.37615" lon="5.79755">
        <ele>1185</ele>
        <time>2022-01-13T14:12:54Z</time>
      </trkpt>
      <trkpt lat="45.37593" lon="5.79716">
        <ele>1176</ele>
        <time>2022-01-13T14:13:06Z</time>
      </trkpt>
      <trkpt lat="45.37587" lon="5.79705">
        <ele>1174</ele>
        <time>2022-01-13T14:13:09Z</time>
      </trkpt>
      <trkpt lat="45.37554" lon="5.79668">
        <ele>1167</ele>
        <time>2022-01-13T14:13:34Z</time>
      </trkpt>
      <trkpt lat="45.37534" lon="5.79653">
        <ele>1163</ele>
        <time>2022-01-13T14:13:39Z</time>
      </trkpt>
      <trkpt lat="45.375" lon="5.79617">
        <ele>1152</ele>
        <time>2022-01-13T14:13:50Z</time>
      </trkpt>
      <trkpt lat="45.37486" lon="5.79615">
        <ele>1150</ele>
        <time>2022-01-13T14:15:21Z</time>
      </trkpt>
      <trkpt lat="45.37489" lon="5.79598">
        <ele>1150</ele>
        <time>2022-01-13T14:15:42Z</time>
      </trkpt>
      <trkpt lat="45.375" lon="5.79587">
        <ele>1148</ele>
        <time>2022-01-13T14:15:56Z</time>
      </trkpt>
      <trkpt lat="45.3752" lon="5.79562">
        <ele>1142</ele>
        <time>2022-01-13T14:16:06Z</time>
      </trkpt>
      <trkpt lat="45.37509" lon="5.79552">
        <ele>1140</ele>
        <time>2022-01-13T14:16:10Z</time>
      </trkpt>
      <trkpt lat="45.37488" lon="5.79547">
        <ele>1137</ele>
        <time>2022-01-13T14:16:15Z</time>
      </trkpt>
      <trkpt lat="45.37465" lon="5.79531">
        <ele>1134</ele>
        <time>2022-01-13T14:16:19Z</time>
      </trkpt>
      <trkpt lat="45.37411" lon="5.79503">
        <ele>1129</ele>
        <time>2022-01-13T14:16:28Z</time>
      </trkpt>
      <trkpt lat="45.37397" lon="5.79504">
        <ele>1127</ele>
        <time>2022-01-13T14:16:31Z</time>
      </trkpt>
      <trkpt lat="45.37361" lon="5.79498">
        <ele>1122</ele>
        <time>2022-01-13T14:16:40Z</time>
      </trkpt>
      <trkpt lat="45.3734" lon="5.79487">
        <ele>1119</ele>
        <time>2022-01-13T14:16:44Z</time>
      </trkpt>
      <trkpt lat="45.37332" lon="5.7947">
        <ele>1116</ele>
        <time>2022-01-13T14:16:47Z</time>
      </trkpt>
      <trkpt lat="45.37307" lon="5.79435">
        <ele>1110</ele>
        <time>2022-01-13T14:16:54Z</time>
      </trkpt>
      <trkpt lat="45.37246" lon="5.79336">
        <ele>1095</ele>
        <time>2022-01-13T14:17:14Z</time>
      </trkpt>
      <trkpt lat="45.37223" lon="5.79331">
        <ele>1092</ele>
        <time>2022-01-13T14:17:19Z</time>
      </trkpt>
      <trkpt lat="45.37215" lon="5.7932">
        <ele>1087</ele>
        <time>2022-01-13T14:17:27Z</time>
      </trkpt>
      <trkpt lat="45.37131" lon="5.79301">
        <ele>1071</ele>
        <time>2022-01-13T14:17:50Z</time>
      </trkpt>
      <trkpt lat="45.37124" lon="5.7929">
        <ele>1071</ele>
        <time>2022-01-13T14:17:57Z</time>
      </trkpt>
      <trkpt lat="45.371" lon="5.79296">
        <ele>1067</ele>
        <time>2022-01-13T14:18:07Z</time>
      </trkpt>
      <trkpt lat="45.37073" lon="5.79295">
        <ele>1064</ele>
        <time>2022-01-13T14:18:11Z</time>
      </trkpt>
      <trkpt lat="45.37042" lon="5.79331">
        <ele>1054</ele>
        <time>2022-01-13T14:18:23Z</time>
      </trkpt>
      <trkpt lat="45.37022" lon="5.79339">
        <ele>1050</ele>
        <time>2022-01-13T14:18:28Z</time>
      </trkpt>
      <trkpt lat="45.36975" lon="5.79375">
        <ele>1041</ele>
        <time>2022-01-13T14:18:38Z</time>
      </trkpt>
      <trkpt lat="45.36965" lon="5.79378">
        <ele>1039</ele>
        <time>2022-01-13T14:18:39Z</time>
      </trkpt>
      <trkpt lat="45.36955" lon="5.79377">
        <ele>1037</ele>
        <time>2022-01-13T14:18:41Z</time>
      </trkpt>
      <trkpt lat="45.36946" lon="5.79372">
        <ele>1036</ele>
        <time>2022-01-13T14:18:43Z</time>
      </trkpt>
      <trkpt lat="45.36922" lon="5.79377">
        <ele>1032</ele>
        <time>2022-01-13T14:18:48Z</time>
      </trkpt>
      <trkpt lat="45.36874" lon="5.79379">
        <ele>1023</ele>
        <time>2022-01-13T14:18:57Z</time>
      </trkpt>
      <trkpt lat="45.36886" lon="5.79384">
        <ele>1021</ele>
        <time>2022-01-13T14:20:50Z</time>
      </trkpt>
      <trkpt lat="45.36869" lon="5.79392">
        <ele>1020</ele>
        <time>2022-01-13T14:21:49Z</time>
      </trkpt>
      <trkpt lat="45.3686" lon="5.79392">
        <ele>1019</ele>
        <time>2022-01-13T14:21:51Z</time>
      </trkpt>
      <trkpt lat="45.36849" lon="5.79388">
        <ele>1018</ele>
        <time>2022-01-13T14:21:53Z</time>
      </trkpt>
      <trkpt lat="45.3681" lon="5.79346">
        <ele>1015</ele>
        <time>2022-01-13T14:21:58Z</time>
      </trkpt>
      <trkpt lat="45.3676" lon="5.79321">
        <ele>1005</ele>
        <time>2022-01-13T14:22:07Z</time>
      </trkpt>
      <trkpt lat="45.36747" lon="5.79316">
        <ele>1003</ele>
        <time>2022-01-13T14:22:09Z</time>
      </trkpt>
      <trkpt lat="45.36602" lon="5.7934">
        <ele>978</ele>
        <time>2022-01-13T14:22:29Z</time>
      </trkpt>
      <trkpt lat="45.36596" lon="5.79354">
        <ele>977</ele>
        <time>2022-01-13T14:22:32Z</time>
      </trkpt>
      <trkpt lat="45.36583" lon="5.79357">
        <ele>976</ele>
        <time>2022-01-13T14:22:35Z</time>
      </trkpt>
      <trkpt lat="45.36575" lon="5.79345">
        <ele>974</ele>
        <time>2022-01-13T14:22:39Z</time>
      </trkpt>
      <trkpt lat="45.36534" lon="5.79326">
        <ele>970</ele>
        <time>2022-01-13T14:22:50Z</time>
      </trkpt>
      <trkpt lat="45.36525" lon="5.79315">
        <ele>969</ele>
        <time>2022-01-13T14:22:52Z</time>
      </trkpt>
      <trkpt lat="45.36489" lon="5.79286">
        <ele>961</ele>
        <time>2022-01-13T14:23:06Z</time>
      </trkpt>
      <trkpt lat="45.36484" lon="5.79275">
        <ele>959</ele>
        <time>2022-01-13T14:23:10Z</time>
      </trkpt>
      <trkpt lat="45.36476" lon="5.79265">
        <ele>957</ele>
        <time>2022-01-13T14:23:13Z</time>
      </trkpt>
      <trkpt lat="45.36463" lon="5.79239">
        <ele>954</ele>
        <time>2022-01-13T14:23:19Z</time>
      </trkpt>
      <trkpt lat="45.36455" lon="5.79229">
        <ele>953</ele>
        <time>2022-01-13T14:23:22Z</time>
      </trkpt>
      <trkpt lat="45.36429" lon="5.79199">
        <ele>946</ele>
        <time>2022-01-13T14:24:01Z</time>
      </trkpt>
      <trkpt lat="45.36419" lon="5.79205">
        <ele>943</ele>
        <time>2022-01-13T14:24:04Z</time>
      </trkpt>
      <trkpt lat="45.36408" lon="5.7921">
        <ele>941</ele>
        <time>2022-01-13T14:24:07Z</time>
      </trkpt>
      <trkpt lat="45.36381" lon="5.79198">
        <ele>940</ele>
        <time>2022-01-13T14:24:13Z</time>
      </trkpt>
      <trkpt lat="45.36371" lon="5.79189">
        <ele>938</ele>
        <time>2022-01-13T14:24:16Z</time>
      </trkpt>
      <trkpt lat="45.36366" lon="5.79172">
        <ele>935</ele>
        <time>2022-01-13T14:24:27Z</time>
      </trkpt>
      <trkpt lat="45.36359" lon="5.79165">
        <ele>933</ele>
        <time>2022-01-13T14:24:30Z</time>
      </trkpt>
      <trkpt lat="45.36327" lon="5.79162">
        <ele>927</ele>
        <time>2022-01-13T14:24:41Z</time>
      </trkpt>
      <trkpt lat="45.36316" lon="5.79155">
        <ele>926</ele>
        <time>2022-01-13T14:24:48Z</time>
      </trkpt>
      <trkpt lat="45.36305" lon="5.79153">
        <ele>925</ele>
        <time>2022-01-13T14:24:54Z</time>
      </trkpt>
      <trkpt lat="45.36284" lon="5.79156">
        <ele>921</ele>
        <time>2022-01-13T14:25:05Z</time>
      </trkpt>
      <trkpt lat="45.36274" lon="5.79145">
        <ele>920</ele>
        <time>2022-01-13T14:25:11Z</time>
      </trkpt>
      <trkpt lat="45.36256" lon="5.79133">
        <ele>917</ele>
        <time>2022-01-13T14:25:17Z</time>
      </trkpt>
      <trkpt lat="45.36245" lon="5.79143">
        <ele>914</ele>
        <time>2022-01-13T14:25:43Z</time>
      </trkpt>
      <trkpt lat="45.36239" lon="5.79128">
        <ele>914</ele>
        <time>2022-01-13T14:26:09Z</time>
      </trkpt>
      <trkpt lat="45.36222" lon="5.79103">
        <ele>910</ele>
        <time>2022-01-13T14:26:15Z</time>
      </trkpt>
      <trkpt lat="45.36212" lon="5.79097">
        <ele>907</ele>
        <time>2022-01-13T14:26:19Z</time>
      </trkpt>
      <trkpt lat="45.36167" lon="5.7908">
        <ele>903</ele>
        <time>2022-01-13T14:26:26Z</time>
      </trkpt>
      <trkpt lat="45.36157" lon="5.79087">
        <ele>901</ele>
        <time>2022-01-13T14:26:30Z</time>
      </trkpt>
      <trkpt lat="45.3615" lon="5.7908">
        <ele>899</ele>
        <time>2022-01-13T14:26:34Z</time>
      </trkpt>
      <trkpt lat="45.36083" lon="5.79057">
        <ele>892</ele>
        <time>2022-01-13T14:26:48Z</time>
      </trkpt>
      <trkpt lat="45.36057" lon="5.7903">
        <ele>886</ele>
        <time>2022-01-13T14:26:55Z</time>
      </trkpt>
      <trkpt lat="45.36046" lon="5.79015">
        <ele>884</ele>
        <time>2022-01-13T14:26:58Z</time>
      </trkpt>
      <trkpt lat="45.3598" lon="5.78981">
        <ele>870</ele>
        <time>2022-01-13T14:27:14Z</time>
      </trkpt>
      <trkpt lat="45.35965" lon="5.78964">
        <ele>867</ele>
        <time>2022-01-13T14:27:18Z</time>
      </trkpt>
      <trkpt lat="45.35911" lon="5.78927">
        <ele>857</ele>
        <time>2022-01-13T14:27:33Z</time>
      </trkpt>
      <trkpt lat="45.35888" lon="5.78922">
        <ele>853</ele>
        <time>2022-01-13T14:27:55Z</time>
      </trkpt>
      <trkpt lat="45.35871" lon="5.78918">
        <ele>850</ele>
        <time>2022-01-13T14:27:59Z</time>
      </trkpt>
      <trkpt lat="45.35838" lon="5.78908">
        <ele>846</ele>
        <time>2022-01-13T14:28:06Z</time>
      </trkpt>
      <trkpt lat="45.35829" lon="5.78903">
        <ele>845</ele>
        <time>2022-01-13T14:28:09Z</time>
      </trkpt>
      <trkpt lat="45.35813" lon="5.78884">
        <ele>842</ele>
        <time>2022-01-13T14:28:16Z</time>
      </trkpt>
      <trkpt lat="45.35768" lon="5.78872">
        <ele>836</ele>
        <time>2022-01-13T14:28:26Z</time>
      </trkpt>
      <trkpt lat="45.35745" lon="5.78853">
        <ele>834</ele>
        <time>2022-01-13T14:28:29Z</time>
      </trkpt>
      <trkpt lat="45.35694" lon="5.78828">
        <ele>826</ele>
        <time>2022-01-13T14:28:40Z</time>
      </trkpt>
      <trkpt lat="45.35623" lon="5.78808">
        <ele>817</ele>
        <time>2022-01-13T14:28:58Z</time>
      </trkpt>
      <trkpt lat="45.35562" lon="5.78791">
        <ele>814</ele>
        <time>2022-01-13T14:29:07Z</time>
      </trkpt>
      <trkpt lat="45.35544" lon="5.78783">
        <ele>812</ele>
        <time>2022-01-13T14:29:31Z</time>
      </trkpt>
      <trkpt lat="45.35543" lon="5.78802">
        <ele>812</ele>
        <time>2022-01-13T14:29:51Z</time>
      </trkpt>
      <trkpt lat="45.35552" lon="5.78807">
        <ele>810</ele>
        <time>2022-01-13T14:35:39Z</time>
      </trkpt>
    </trkseg>
  </trk>
</gpx>